<?xml version="1.0" encoding="UTF-8" standalone="no" ?>
<gpx xmlns="http://www.topografix.com/GPX/1/1" xmlns:xsi="http://www.w3.org/2001/XMLSchema-instance" xsi:schemaLocation="http://www.topografix.com/GPX/1/1 http://www.topografix.com/GPX/1/1/gpx.xsd" version="1.1" creator="VisuGPX - https://www.visugpx.com">
  <metadata>
    <name>Frienisberg, Wahlendorf,Gummen, Baggwilgraben</name>
  </metadata>
  <trk>
    <name><![CDATA[Frienisberg, Wahlendorf,Gummen, Baggwilgraben_1]]></name>
    <trkseg>
      <trkpt lat="47.02662" lon="7.33064">
        <ele>663.19</ele>
        <time>2021-02-24T10:00:00.000Z</time>
      </trkpt>
      <trkpt lat="47.02667" lon="7.33073">
        <ele>663.2</ele>
        <time>2021-02-24T10:00:07.528Z</time>
      </trkpt>
      <trkpt lat="47.02672" lon="7.33082">
        <ele>663.24</ele>
        <time>2021-02-24T10:00:15.331Z</time>
      </trkpt>
      <trkpt lat="47.02684" lon="7.33102">
        <ele>663.53</ele>
        <time>2021-02-24T10:00:35.332Z</time>
      </trkpt>
      <trkpt lat="47.02687" lon="7.33107">
        <ele>663.57</ele>
        <time>2021-02-24T10:00:39.976Z</time>
      </trkpt>
      <trkpt lat="47.02688" lon="7.33111">
        <ele>663.81</ele>
        <time>2021-02-24T10:00:46.050Z</time>
      </trkpt>
      <trkpt lat="47.02689" lon="7.33117">
        <ele>663.97</ele>
        <time>2021-02-24T10:00:52.122Z</time>
      </trkpt>
      <trkpt lat="47.02691" lon="7.33133">
        <ele>664.76</ele>
        <time>2021-02-24T10:01:13.299Z</time>
      </trkpt>
      <trkpt lat="47.02668" lon="7.33139">
        <ele>667.08</ele>
        <time>2021-02-24T10:02:10.037Z</time>
      </trkpt>
      <trkpt lat="47.02651" lon="7.33142">
        <ele>668.77</ele>
        <time>2021-02-24T10:02:51.378Z</time>
      </trkpt>
      <trkpt lat="47.02617" lon="7.3315">
        <ele>672.89</ele>
        <time>2021-02-24T10:04:35.508Z</time>
      </trkpt>
      <trkpt lat="47.02621" lon="7.33163">
        <ele>672.68</ele>
        <time>2021-02-24T10:04:38.413Z</time>
      </trkpt>
      <trkpt lat="47.02626" lon="7.33175">
        <ele>672.11</ele>
        <time>2021-02-24T10:04:40.409Z</time>
      </trkpt>
      <trkpt lat="47.02632" lon="7.33184">
        <ele>671.5</ele>
        <time>2021-02-24T10:04:42.252Z</time>
      </trkpt>
      <trkpt lat="47.02645" lon="7.33208">
        <ele>670.01</ele>
        <time>2021-02-24T10:04:46.741Z</time>
      </trkpt>
      <trkpt lat="47.02661" lon="7.33237">
        <ele>668.02</ele>
        <time>2021-02-24T10:04:52.203Z</time>
      </trkpt>
      <trkpt lat="47.02687" lon="7.33286">
        <ele>665.73</ele>
        <time>2021-02-24T10:05:01.409Z</time>
      </trkpt>
      <trkpt lat="47.02695" lon="7.33299">
        <ele>665.13</ele>
        <time>2021-02-24T10:05:04.092Z</time>
      </trkpt>
      <trkpt lat="47.02704" lon="7.33312">
        <ele>664.69</ele>
        <time>2021-02-24T10:05:07.368Z</time>
      </trkpt>
      <trkpt lat="47.02705" lon="7.33316">
        <ele>664.69</ele>
        <time>2021-02-24T10:05:10.098Z</time>
      </trkpt>
      <trkpt lat="47.02705" lon="7.33319">
        <ele>664.52</ele>
        <time>2021-02-24T10:05:10.538Z</time>
      </trkpt>
      <trkpt lat="47.02707" lon="7.33323">
        <ele>664.66</ele>
        <time>2021-02-24T10:05:15.659Z</time>
      </trkpt>
      <trkpt lat="47.0271" lon="7.33328">
        <ele>664.92</ele>
        <time>2021-02-24T10:05:23.497Z</time>
      </trkpt>
      <trkpt lat="47.02712" lon="7.3333">
        <ele>665.27</ele>
        <time>2021-02-24T10:05:32.275Z</time>
      </trkpt>
      <trkpt lat="47.02713" lon="7.33333">
        <ele>665.47</ele>
        <time>2021-02-24T10:05:37.252Z</time>
      </trkpt>
      <trkpt lat="47.02714" lon="7.33338">
        <ele>665.96</ele>
        <time>2021-02-24T10:05:50.133Z</time>
      </trkpt>
      <trkpt lat="47.02714" lon="7.33342">
        <ele>666.41</ele>
        <time>2021-02-24T10:06:00.021Z</time>
      </trkpt>
      <trkpt lat="47.02713" lon="7.33346">
        <ele>666.7</ele>
        <time>2021-02-24T10:06:07.112Z</time>
      </trkpt>
      <trkpt lat="47.02711" lon="7.3335">
        <ele>667.28</ele>
        <time>2021-02-24T10:06:19.375Z</time>
      </trkpt>
      <trkpt lat="47.02709" lon="7.33353">
        <ele>667.55</ele>
        <time>2021-02-24T10:06:26.006Z</time>
      </trkpt>
      <trkpt lat="47.02707" lon="7.33354">
        <ele>667.87</ele>
        <time>2021-02-24T10:06:33.669Z</time>
      </trkpt>
      <trkpt lat="47.027" lon="7.33356">
        <ele>668.88</ele>
        <time>2021-02-24T10:06:59.532Z</time>
      </trkpt>
      <trkpt lat="47.02697" lon="7.33358">
        <ele>669.34</ele>
        <time>2021-02-24T10:07:11.482Z</time>
      </trkpt>
      <trkpt lat="47.02695" lon="7.33361">
        <ele>669.72</ele>
        <time>2021-02-24T10:07:21.769Z</time>
      </trkpt>
      <trkpt lat="47.02692" lon="7.33367">
        <ele>670.53</ele>
        <time>2021-02-24T10:07:40.163Z</time>
      </trkpt>
      <trkpt lat="47.02688" lon="7.33381">
        <ele>672.25</ele>
        <time>2021-02-24T10:08:17.689Z</time>
      </trkpt>
      <trkpt lat="47.0268" lon="7.33416">
        <ele>675.95</ele>
        <time>2021-02-24T10:09:48.946Z</time>
      </trkpt>
      <trkpt lat="47.02678" lon="7.33425">
        <ele>676.65</ele>
        <time>2021-02-24T10:10:06.144Z</time>
      </trkpt>
      <trkpt lat="47.02677" lon="7.33434">
        <ele>677.24</ele>
        <time>2021-02-24T10:10:20.625Z</time>
      </trkpt>
      <trkpt lat="47.02677" lon="7.33441">
        <ele>677.48</ele>
        <time>2021-02-24T10:10:28.485Z</time>
      </trkpt>
      <trkpt lat="47.02677" lon="7.33447">
        <ele>677.75</ele>
        <time>2021-02-24T10:10:35.997Z</time>
      </trkpt>
      <trkpt lat="47.02678" lon="7.33454">
        <ele>678.02</ele>
        <time>2021-02-24T10:10:44.305Z</time>
      </trkpt>
      <trkpt lat="47.0268" lon="7.33462">
        <ele>678.28</ele>
        <time>2021-02-24T10:10:53.538Z</time>
      </trkpt>
      <trkpt lat="47.02687" lon="7.33481">
        <ele>679.2</ele>
        <time>2021-02-24T10:11:19.899Z</time>
      </trkpt>
      <trkpt lat="47.02695" lon="7.335">
        <ele>681.5</ele>
        <time>2021-02-24T10:12:15.106Z</time>
      </trkpt>
      <trkpt lat="47.027" lon="7.33517">
        <ele>683.41</ele>
        <time>2021-02-24T10:13:00.875Z</time>
      </trkpt>
      <trkpt lat="47.02709" lon="7.33551">
        <ele>686.51</ele>
        <time>2021-02-24T10:14:20.920Z</time>
      </trkpt>
      <trkpt lat="47.02713" lon="7.33565">
        <ele>687.38</ele>
        <time>2021-02-24T10:14:42.822Z</time>
      </trkpt>
      <trkpt lat="47.02715" lon="7.3358">
        <ele>687.02</ele>
        <time>2021-02-24T10:14:45.531Z</time>
      </trkpt>
      <trkpt lat="47.02718" lon="7.3359">
        <ele>687.75</ele>
        <time>2021-02-24T10:15:03.396Z</time>
      </trkpt>
      <trkpt lat="47.02722" lon="7.33597">
        <ele>688.11</ele>
        <time>2021-02-24T10:15:14.185Z</time>
      </trkpt>
      <trkpt lat="47.02728" lon="7.33603">
        <ele>688.47</ele>
        <time>2021-02-24T10:15:26.090Z</time>
      </trkpt>
      <trkpt lat="47.0274" lon="7.33614">
        <ele>689.57</ele>
        <time>2021-02-24T10:15:54.520Z</time>
      </trkpt>
      <trkpt lat="47.02781" lon="7.33648">
        <ele>692.47</ele>
        <time>2021-02-24T10:17:18.302Z</time>
      </trkpt>
      <trkpt lat="47.02807" lon="7.33669">
        <ele>693.57</ele>
        <time>2021-02-24T10:18:00.550Z</time>
      </trkpt>
      <trkpt lat="47.02821" lon="7.33682">
        <ele>693.51</ele>
        <time>2021-02-24T10:18:15.309Z</time>
      </trkpt>
      <trkpt lat="47.02861" lon="7.33719">
        <ele>695.3</ele>
        <time>2021-02-24T10:19:23.367Z</time>
      </trkpt>
      <trkpt lat="47.0288" lon="7.3374">
        <ele>698.35</ele>
        <time>2021-02-24T10:20:43.584Z</time>
      </trkpt>
      <trkpt lat="47.02895" lon="7.33758">
        <ele>699.88</ele>
        <time>2021-02-24T10:21:22.902Z</time>
      </trkpt>
      <trkpt lat="47.02904" lon="7.33772">
        <ele>700.19</ele>
        <time>2021-02-24T10:21:38.642Z</time>
      </trkpt>
      <trkpt lat="47.02918" lon="7.33797">
        <ele>701.19</ele>
        <time>2021-02-24T10:22:13.826Z</time>
      </trkpt>
      <trkpt lat="47.02944" lon="7.33858">
        <ele>704.01</ele>
        <time>2021-02-24T10:23:38.617Z</time>
      </trkpt>
      <trkpt lat="47.02958" lon="7.33888">
        <ele>703.18</ele>
        <time>2021-02-24T10:23:45.132Z</time>
      </trkpt>
      <trkpt lat="47.02978" lon="7.3393">
        <ele>700.59</ele>
        <time>2021-02-24T10:23:52.633Z</time>
      </trkpt>
      <trkpt lat="47.02993" lon="7.33963">
        <ele>699.51</ele>
        <time>2021-02-24T10:23:59.304Z</time>
      </trkpt>
      <trkpt lat="47.03" lon="7.3398">
        <ele>699.58</ele>
        <time>2021-02-24T10:24:12.665Z</time>
      </trkpt>
      <trkpt lat="47.03004" lon="7.33993">
        <ele>700.07</ele>
        <time>2021-02-24T10:24:28.690Z</time>
      </trkpt>
      <trkpt lat="47.0301" lon="7.34012">
        <ele>700.39</ele>
        <time>2021-02-24T10:24:45.578Z</time>
      </trkpt>
      <trkpt lat="47.03017" lon="7.34036">
        <ele>701.13</ele>
        <time>2021-02-24T10:25:12.603Z</time>
      </trkpt>
      <trkpt lat="47.03021" lon="7.3405">
        <ele>701.49</ele>
        <time>2021-02-24T10:25:26.882Z</time>
      </trkpt>
      <trkpt lat="47.03029" lon="7.34089">
        <ele>701.69</ele>
        <time>2021-02-24T10:25:54.827Z</time>
      </trkpt>
      <trkpt lat="47.03029" lon="7.34089">
        <ele>701.69</ele>
        <time>2021-02-24T10:25:54.827Z</time>
      </trkpt>
      <trkpt lat="47.03024" lon="7.34087">
        <ele>702.14</ele>
        <time>2021-02-24T10:26:06.057Z</time>
      </trkpt>
      <trkpt lat="47.0302" lon="7.34085">
        <ele>702.59</ele>
        <time>2021-02-24T10:26:17.086Z</time>
      </trkpt>
      <trkpt lat="47.03016" lon="7.34085">
        <ele>703.09</ele>
        <time>2021-02-24T10:26:30.016Z</time>
      </trkpt>
      <trkpt lat="47.0301" lon="7.34085">
        <ele>703.51</ele>
        <time>2021-02-24T10:26:41.368Z</time>
      </trkpt>
      <trkpt lat="47.03002" lon="7.34087">
        <ele>704.35</ele>
        <time>2021-02-24T10:27:01.913Z</time>
      </trkpt>
      <trkpt lat="47.02982" lon="7.34094">
        <ele>705.11</ele>
        <time>2021-02-24T10:27:31.140Z</time>
      </trkpt>
      <trkpt lat="47.02969" lon="7.34099">
        <ele>705.7</ele>
        <time>2021-02-24T10:27:52.275Z</time>
      </trkpt>
      <trkpt lat="47.02964" lon="7.34101">
        <ele>706.12</ele>
        <time>2021-02-24T10:28:02.970Z</time>
      </trkpt>
      <trkpt lat="47.02959" lon="7.34106">
        <ele>706.57</ele>
        <time>2021-02-24T10:28:14.808Z</time>
      </trkpt>
      <trkpt lat="47.02955" lon="7.34109">
        <ele>706.77</ele>
        <time>2021-02-24T10:28:21.938Z</time>
      </trkpt>
      <trkpt lat="47.02952" lon="7.34106">
        <ele>706.88</ele>
        <time>2021-02-24T10:28:26.663Z</time>
      </trkpt>
      <trkpt lat="47.02948" lon="7.34104">
        <ele>706.99</ele>
        <time>2021-02-24T10:28:31.880Z</time>
      </trkpt>
      <trkpt lat="47.02944" lon="7.34102">
        <ele>707.13</ele>
        <time>2021-02-24T10:28:37.584Z</time>
      </trkpt>
      <trkpt lat="47.02939" lon="7.34101">
        <ele>707.17</ele>
        <time>2021-02-24T10:28:42.700Z</time>
      </trkpt>
      <trkpt lat="47.0288" lon="7.34107">
        <ele>710.26</ele>
        <time>2021-02-24T10:30:21.383Z</time>
      </trkpt>
      <trkpt lat="47.0287" lon="7.34107">
        <ele>710.73</ele>
        <time>2021-02-24T10:30:37.506Z</time>
      </trkpt>
      <trkpt lat="47.02862" lon="7.34106">
        <ele>711.07</ele>
        <time>2021-02-24T10:30:49.839Z</time>
      </trkpt>
      <trkpt lat="47.02853" lon="7.34104">
        <ele>711.55</ele>
        <time>2021-02-24T10:31:05.077Z</time>
      </trkpt>
      <trkpt lat="47.02842" lon="7.341">
        <ele>711.89</ele>
        <time>2021-02-24T10:31:19.770Z</time>
      </trkpt>
      <trkpt lat="47.0283" lon="7.34093">
        <ele>712.53</ele>
        <time>2021-02-24T10:31:40.939Z</time>
      </trkpt>
      <trkpt lat="47.02818" lon="7.34083">
        <ele>713.29</ele>
        <time>2021-02-24T10:32:04.408Z</time>
      </trkpt>
      <trkpt lat="47.02807" lon="7.34071">
        <ele>714.02</ele>
        <time>2021-02-24T10:32:27.435Z</time>
      </trkpt>
      <trkpt lat="47.02797" lon="7.34059">
        <ele>714.91</ele>
        <time>2021-02-24T10:32:51.674Z</time>
      </trkpt>
      <trkpt lat="47.02786" lon="7.34043">
        <ele>716.13</ele>
        <time>2021-02-24T10:33:23.053Z</time>
      </trkpt>
      <trkpt lat="47.02772" lon="7.34022">
        <ele>717.91</ele>
        <time>2021-02-24T10:34:07.231Z</time>
      </trkpt>
      <trkpt lat="47.02749" lon="7.33983">
        <ele>720.91</ele>
        <time>2021-02-24T10:35:22.438Z</time>
      </trkpt>
      <trkpt lat="47.02735" lon="7.33959">
        <ele>721.29</ele>
        <time>2021-02-24T10:35:46.586Z</time>
      </trkpt>
      <trkpt lat="47.02719" lon="7.33928">
        <ele>721.12</ele>
        <time>2021-02-24T10:36:09.277Z</time>
      </trkpt>
      <trkpt lat="47.02703" lon="7.33896">
        <ele>721.3</ele>
        <time>2021-02-24T10:36:36.362Z</time>
      </trkpt>
      <trkpt lat="47.02692" lon="7.33876">
        <ele>721.89</ele>
        <time>2021-02-24T10:37:00.181Z</time>
      </trkpt>
      <trkpt lat="47.02686" lon="7.33867">
        <ele>722.09</ele>
        <time>2021-02-24T10:37:10.439Z</time>
      </trkpt>
      <trkpt lat="47.02679" lon="7.33859">
        <ele>722.26</ele>
        <time>2021-02-24T10:37:20.557Z</time>
      </trkpt>
      <trkpt lat="47.02669" lon="7.33851">
        <ele>722.21</ele>
        <time>2021-02-24T10:37:30.592Z</time>
      </trkpt>
      <trkpt lat="47.02657" lon="7.33844">
        <ele>722.45</ele>
        <time>2021-02-24T10:37:45.225Z</time>
      </trkpt>
      <trkpt lat="47.02649" lon="7.3384">
        <ele>722.66</ele>
        <time>2021-02-24T10:37:55.513Z</time>
      </trkpt>
      <trkpt lat="47.02642" lon="7.33838">
        <ele>722.44</ele>
        <time>2021-02-24T10:37:57.439Z</time>
      </trkpt>
      <trkpt lat="47.02637" lon="7.33843">
        <ele>723.33</ele>
        <time>2021-02-24T10:38:19.384Z</time>
      </trkpt>
      <trkpt lat="47.02627" lon="7.3385">
        <ele>724.38</ele>
        <time>2021-02-24T10:38:45.160Z</time>
      </trkpt>
      <trkpt lat="47.02617" lon="7.33855">
        <ele>725.05</ele>
        <time>2021-02-24T10:39:04.203Z</time>
      </trkpt>
      <trkpt lat="47.02611" lon="7.33856">
        <ele>725.53</ele>
        <time>2021-02-24T10:39:16.508Z</time>
      </trkpt>
      <trkpt lat="47.02603" lon="7.33856">
        <ele>725.91</ele>
        <time>2021-02-24T10:39:29.448Z</time>
      </trkpt>
      <trkpt lat="47.02589" lon="7.33851">
        <ele>726.24</ele>
        <time>2021-02-24T10:39:46.592Z</time>
      </trkpt>
      <trkpt lat="47.02577" lon="7.33844">
        <ele>727.05</ele>
        <time>2021-02-24T10:40:09.754Z</time>
      </trkpt>
      <trkpt lat="47.02569" lon="7.33838">
        <ele>727.42</ele>
        <time>2021-02-24T10:40:23.318Z</time>
      </trkpt>
      <trkpt lat="47.02559" lon="7.33836">
        <ele>728.08</ele>
        <time>2021-02-24T10:40:41.771Z</time>
      </trkpt>
      <trkpt lat="47.0255" lon="7.33836">
        <ele>728.45</ele>
        <time>2021-02-24T10:40:55.345Z</time>
      </trkpt>
      <trkpt lat="47.02539" lon="7.33839">
        <ele>729.64</ele>
        <time>2021-02-24T10:41:24.508Z</time>
      </trkpt>
      <trkpt lat="47.02522" lon="7.33847">
        <ele>730.61</ele>
        <time>2021-02-24T10:41:54.716Z</time>
      </trkpt>
      <trkpt lat="47.02509" lon="7.33858">
        <ele>732.36</ele>
        <time>2021-02-24T10:42:38.495Z</time>
      </trkpt>
      <trkpt lat="47.02496" lon="7.33872">
        <ele>735.43</ele>
        <time>2021-02-24T10:43:36.980Z</time>
      </trkpt>
      <trkpt lat="47.02481" lon="7.33897">
        <ele>735.35</ele>
        <time>2021-02-24T10:43:57.233Z</time>
      </trkpt>
      <trkpt lat="47.02469" lon="7.33915">
        <ele>738.74</ele>
        <time>2021-02-24T10:44:59.474Z</time>
      </trkpt>
      <trkpt lat="47.02457" lon="7.33926">
        <ele>742.22</ele>
        <time>2021-02-24T10:45:50.791Z</time>
      </trkpt>
      <trkpt lat="47.02442" lon="7.33936">
        <ele>743.29</ele>
        <time>2021-02-24T10:46:20.818Z</time>
      </trkpt>
      <trkpt lat="47.02428" lon="7.33943">
        <ele>744.61</ele>
        <time>2021-02-24T10:46:53.551Z</time>
      </trkpt>
      <trkpt lat="47.02418" lon="7.33944">
        <ele>746.02</ele>
        <time>2021-02-24T10:47:29.901Z</time>
      </trkpt>
      <trkpt lat="47.02414" lon="7.33943">
        <ele>746.65</ele>
        <time>2021-02-24T10:47:44.616Z</time>
      </trkpt>
      <trkpt lat="47.02394" lon="7.33936">
        <ele>749.51</ele>
        <time>2021-02-24T10:48:59.183Z</time>
      </trkpt>
      <trkpt lat="47.02383" lon="7.33932">
        <ele>752.22</ele>
        <time>2021-02-24T10:49:40.282Z</time>
      </trkpt>
      <trkpt lat="47.02382" lon="7.33932">
        <ele>752.22</ele>
        <time>2021-02-24T10:49:41.222Z</time>
      </trkpt>
      <trkpt lat="47.02358" lon="7.33923">
        <ele>754.94</ele>
        <time>2021-02-24T10:50:48.186Z</time>
      </trkpt>
      <trkpt lat="47.02329" lon="7.33914">
        <ele>752.52</ele>
        <time>2021-02-24T10:50:54.553Z</time>
      </trkpt>
      <trkpt lat="47.0231" lon="7.33906">
        <ele>752.33</ele>
        <time>2021-02-24T10:51:01.407Z</time>
      </trkpt>
      <trkpt lat="47.02301" lon="7.33902">
        <ele>752.18</ele>
        <time>2021-02-24T10:51:04.413Z</time>
      </trkpt>
      <trkpt lat="47.02283" lon="7.33896">
        <ele>752.03</ele>
        <time>2021-02-24T10:51:10.943Z</time>
      </trkpt>
      <trkpt lat="47.0227" lon="7.33892">
        <ele>752.09</ele>
        <time>2021-02-24T10:51:23.970Z</time>
      </trkpt>
      <trkpt lat="47.02229" lon="7.33872">
        <ele>751.96</ele>
        <time>2021-02-24T10:52:02.805Z</time>
      </trkpt>
      <trkpt lat="47.02196" lon="7.33853">
        <ele>751.57</ele>
        <time>2021-02-24T10:52:14.872Z</time>
      </trkpt>
      <trkpt lat="47.0217" lon="7.33838">
        <ele>751.01</ele>
        <time>2021-02-24T10:52:23.374Z</time>
      </trkpt>
      <trkpt lat="47.02142" lon="7.33823">
        <ele>751.1</ele>
        <time>2021-02-24T10:52:52.198Z</time>
      </trkpt>
      <trkpt lat="47.02111" lon="7.33804">
        <ele>751.26</ele>
        <time>2021-02-24T10:53:25.228Z</time>
      </trkpt>
      <trkpt lat="47.02089" lon="7.33791">
        <ele>751.48</ele>
        <time>2021-02-24T10:53:49.598Z</time>
      </trkpt>
      <trkpt lat="47.02054" lon="7.33772">
        <ele>752.03</ele>
        <time>2021-02-24T10:54:30.163Z</time>
      </trkpt>
      <trkpt lat="47.02029" lon="7.3376">
        <ele>752.61</ele>
        <time>2021-02-24T10:55:01.154Z</time>
      </trkpt>
      <trkpt lat="47.0202" lon="7.33755">
        <ele>752.78</ele>
        <time>2021-02-24T10:55:11.949Z</time>
      </trkpt>
      <trkpt lat="47.0201" lon="7.33748">
        <ele>753.09</ele>
        <time>2021-02-24T10:55:25.957Z</time>
      </trkpt>
      <trkpt lat="47.02007" lon="7.33744">
        <ele>753.15</ele>
        <time>2021-02-24T10:55:30.366Z</time>
      </trkpt>
      <trkpt lat="47.01998" lon="7.33728">
        <ele>753.58</ele>
        <time>2021-02-24T10:55:48.795Z</time>
      </trkpt>
      <trkpt lat="47.01992" lon="7.33712">
        <ele>753.99</ele>
        <time>2021-02-24T10:56:05.556Z</time>
      </trkpt>
      <trkpt lat="47.01983" lon="7.33685">
        <ele>754.69</ele>
        <time>2021-02-24T10:56:33.595Z</time>
      </trkpt>
      <trkpt lat="47.01975" lon="7.33651">
        <ele>755.98</ele>
        <time>2021-02-24T10:57:14.609Z</time>
      </trkpt>
      <trkpt lat="47.01954" lon="7.33564">
        <ele>759.14</ele>
        <time>2021-02-24T10:58:58.202Z</time>
      </trkpt>
      <trkpt lat="47.01935" lon="7.33489">
        <ele>761.66</ele>
        <time>2021-02-24T11:00:25.699Z</time>
      </trkpt>
      <trkpt lat="47.01932" lon="7.33473">
        <ele>761.99</ele>
        <time>2021-02-24T11:00:40.214Z</time>
      </trkpt>
      <trkpt lat="47.01929" lon="7.33456">
        <ele>761.96</ele>
        <time>2021-02-24T11:00:51.054Z</time>
      </trkpt>
      <trkpt lat="47.01927" lon="7.33435">
        <ele>762.47</ele>
        <time>2021-02-24T11:01:11.135Z</time>
      </trkpt>
      <trkpt lat="47.01922" lon="7.33392">
        <ele>762.98</ele>
        <time>2021-02-24T11:01:44.306Z</time>
      </trkpt>
      <trkpt lat="47.01918" lon="7.33358">
        <ele>763.88</ele>
        <time>2021-02-24T11:02:18.355Z</time>
      </trkpt>
      <trkpt lat="47.01914" lon="7.33324">
        <ele>764</ele>
        <time>2021-02-24T11:02:41.555Z</time>
      </trkpt>
      <trkpt lat="47.01912" lon="7.33315">
        <ele>764</ele>
        <time>2021-02-24T11:02:47.623Z</time>
      </trkpt>
      <trkpt lat="47.01909" lon="7.33303">
        <ele>764.99</ele>
        <time>2021-02-24T11:03:12.187Z</time>
      </trkpt>
      <trkpt lat="47.01901" lon="7.33297">
        <ele>765.3</ele>
        <time>2021-02-24T11:03:24.538Z</time>
      </trkpt>
      <trkpt lat="47.01859" lon="7.33255">
        <ele>769.81</ele>
        <time>2021-02-24T11:05:16.519Z</time>
      </trkpt>
      <trkpt lat="47.01827" lon="7.33211">
        <ele>772.84</ele>
        <time>2021-02-24T11:06:38.932Z</time>
      </trkpt>
      <trkpt lat="47.01812" lon="7.33192">
        <ele>774.6</ele>
        <time>2021-02-24T11:07:22.623Z</time>
      </trkpt>
      <trkpt lat="47.01792" lon="7.33164">
        <ele>775.64</ele>
        <time>2021-02-24T11:08:02.283Z</time>
      </trkpt>
      <trkpt lat="47.01769" lon="7.33127">
        <ele>777.23</ele>
        <time>2021-02-24T11:08:57.174Z</time>
      </trkpt>
      <trkpt lat="47.01746" lon="7.33087">
        <ele>778.98</ele>
        <time>2021-02-24T11:09:55.463Z</time>
      </trkpt>
      <trkpt lat="47.01726" lon="7.3305">
        <ele>781.27</ele>
        <time>2021-02-24T11:10:56.895Z</time>
      </trkpt>
      <trkpt lat="47.01716" lon="7.33036">
        <ele>782.52</ele>
        <time>2021-02-24T11:11:27.809Z</time>
      </trkpt>
      <trkpt lat="47.01707" lon="7.33023">
        <ele>783.92</ele>
        <time>2021-02-24T11:12:02.339Z</time>
      </trkpt>
      <trkpt lat="47.01695" lon="7.33012">
        <ele>785.38</ele>
        <time>2021-02-24T11:12:38.043Z</time>
      </trkpt>
      <trkpt lat="47.01685" lon="7.33004">
        <ele>786.43</ele>
        <time>2021-02-24T11:13:03.921Z</time>
      </trkpt>
      <trkpt lat="47.01678" lon="7.32997">
        <ele>786.81</ele>
        <time>2021-02-24T11:13:17.395Z</time>
      </trkpt>
      <trkpt lat="47.01661" lon="7.32977">
        <ele>787.21</ele>
        <time>2021-02-24T11:13:42.026Z</time>
      </trkpt>
      <trkpt lat="47.01639" lon="7.32949">
        <ele>787.15</ele>
        <time>2021-02-24T11:14:08.575Z</time>
      </trkpt>
      <trkpt lat="47.01617" lon="7.32924">
        <ele>786.68</ele>
        <time>2021-02-24T11:14:17.370Z</time>
      </trkpt>
      <trkpt lat="47.01598" lon="7.32902">
        <ele>786.27</ele>
        <time>2021-02-24T11:14:25.015Z</time>
      </trkpt>
      <trkpt lat="47.01588" lon="7.32887">
        <ele>786.36</ele>
        <time>2021-02-24T11:14:39.285Z</time>
      </trkpt>
      <trkpt lat="47.01582" lon="7.32877">
        <ele>786.5</ele>
        <time>2021-02-24T11:14:49.229Z</time>
      </trkpt>
      <trkpt lat="47.01574" lon="7.32862">
        <ele>786.5</ele>
        <time>2021-02-24T11:15:01.437Z</time>
      </trkpt>
      <trkpt lat="47.01555" lon="7.32817">
        <ele>787.32</ele>
        <time>2021-02-24T11:15:44.285Z</time>
      </trkpt>
      <trkpt lat="47.01537" lon="7.32775">
        <ele>788.42</ele>
        <time>2021-02-24T11:16:29.579Z</time>
      </trkpt>
      <trkpt lat="47.01526" lon="7.32745">
        <ele>789.72</ele>
        <time>2021-02-24T11:17:09.316Z</time>
      </trkpt>
      <trkpt lat="47.01532" lon="7.32733">
        <ele>797.2</ele>
        <time>2021-02-24T11:17:45.413Z</time>
      </trkpt>
      <trkpt lat="47.01536" lon="7.32707">
        <ele>797</ele>
        <time>2021-02-24T11:17:51.642Z</time>
      </trkpt>
      <trkpt lat="47.01535" lon="7.32685">
        <ele>797.3</ele>
        <time>2021-02-24T11:18:08.917Z</time>
      </trkpt>
      <trkpt lat="47.0153" lon="7.32643">
        <ele>799.2</ele>
        <time>2021-02-24T11:19:02.331Z</time>
      </trkpt>
      <trkpt lat="47.01525" lon="7.32601">
        <ele>801.9</ele>
        <time>2021-02-24T11:20:08.863Z</time>
      </trkpt>
      <trkpt lat="47.01515" lon="7.32566">
        <ele>805.7</ele>
        <time>2021-02-24T11:21:41.823Z</time>
      </trkpt>
      <trkpt lat="47.01504" lon="7.32545">
        <ele>809.9</ele>
        <time>2021-02-24T11:22:46.189Z</time>
      </trkpt>
      <trkpt lat="47.01491" lon="7.32475">
        <ele>813.7</ele>
        <time>2021-02-24T11:24:24.875Z</time>
      </trkpt>
      <trkpt lat="47.01481" lon="7.32406">
        <ele>813.9</ele>
        <time>2021-02-24T11:25:11.848Z</time>
      </trkpt>
      <trkpt lat="47.01479" lon="7.32366">
        <ele>809.4</ele>
        <time>2021-02-24T11:25:17.821Z</time>
      </trkpt>
      <trkpt lat="47.01478" lon="7.32329">
        <ele>804.9</ele>
        <time>2021-02-24T11:25:23.184Z</time>
      </trkpt>
      <trkpt lat="47.01446" lon="7.32317">
        <ele>804.9</ele>
        <time>2021-02-24T11:25:53.906Z</time>
      </trkpt>
      <trkpt lat="47.01426" lon="7.32329">
        <ele>809.2</ele>
        <time>2021-02-24T11:27:14.175Z</time>
      </trkpt>
      <trkpt lat="47.01375" lon="7.32355">
        <ele>810.6</ele>
        <time>2021-02-24T11:28:20.315Z</time>
      </trkpt>
      <trkpt lat="47.01344" lon="7.32378">
        <ele>810.9</ele>
        <time>2021-02-24T11:28:56.219Z</time>
      </trkpt>
      <trkpt lat="47.01327" lon="7.32389">
        <ele>812.6</ele>
        <time>2021-02-24T11:29:38.288Z</time>
      </trkpt>
      <trkpt lat="47.01324" lon="7.32396">
        <ele>813.6</ele>
        <time>2021-02-24T11:29:57.256Z</time>
      </trkpt>
      <trkpt lat="47.01462" lon="7.32753">
        <ele>788.16</ele>
        <time>2021-02-24T11:30:57.426Z</time>
      </trkpt>
      <trkpt lat="47.01473" lon="7.32785">
        <ele>787.83</ele>
        <time>2021-02-24T11:31:05.479Z</time>
      </trkpt>
      <trkpt lat="47.01485" lon="7.32815">
        <ele>786.92</ele>
        <time>2021-02-24T11:31:11.420Z</time>
      </trkpt>
      <trkpt lat="47.015" lon="7.32854">
        <ele>786.92</ele>
        <time>2021-02-24T11:31:40.124Z</time>
      </trkpt>
      <trkpt lat="47.01535" lon="7.32943">
        <ele>788.69</ele>
        <time>2021-02-24T11:33:05.821Z</time>
      </trkpt>
      <trkpt lat="47.01527" lon="7.32943">
        <ele>788.31</ele>
        <time>2021-02-24T11:33:07.663Z</time>
      </trkpt>
      <trkpt lat="47.0152" lon="7.32944">
        <ele>787.65</ele>
        <time>2021-02-24T11:33:09.173Z</time>
      </trkpt>
      <trkpt lat="47.01514" lon="7.32946">
        <ele>787.59</ele>
        <time>2021-02-24T11:33:11.303Z</time>
      </trkpt>
      <trkpt lat="47.01508" lon="7.3295">
        <ele>787.54</ele>
        <time>2021-02-24T11:33:13.651Z</time>
      </trkpt>
      <trkpt lat="47.01499" lon="7.32962">
        <ele>786.97</ele>
        <time>2021-02-24T11:33:16.467Z</time>
      </trkpt>
      <trkpt lat="47.01478" lon="7.32995">
        <ele>785.96</ele>
        <time>2021-02-24T11:33:24.614Z</time>
      </trkpt>
      <trkpt lat="47.01458" lon="7.33024">
        <ele>784.97</ele>
        <time>2021-02-24T11:33:31.881Z</time>
      </trkpt>
      <trkpt lat="47.01434" lon="7.33059">
        <ele>784.44</ele>
        <time>2021-02-24T11:33:42.739Z</time>
      </trkpt>
      <trkpt lat="47.01411" lon="7.33094">
        <ele>784.28</ele>
        <time>2021-02-24T11:34:11.754Z</time>
      </trkpt>
      <trkpt lat="47.01385" lon="7.33132">
        <ele>783.87</ele>
        <time>2021-02-24T11:34:24.221Z</time>
      </trkpt>
      <trkpt lat="47.0136" lon="7.3317">
        <ele>783.7</ele>
        <time>2021-02-24T11:34:55.789Z</time>
      </trkpt>
      <trkpt lat="47.01345" lon="7.33191">
        <ele>783.83</ele>
        <time>2021-02-24T11:35:16.474Z</time>
      </trkpt>
      <trkpt lat="47.01339" lon="7.33202">
        <ele>783.61</ele>
        <time>2021-02-24T11:35:19.302Z</time>
      </trkpt>
      <trkpt lat="47.01336" lon="7.3321">
        <ele>783.7</ele>
        <time>2021-02-24T11:35:26.048Z</time>
      </trkpt>
      <trkpt lat="47.01334" lon="7.33216">
        <ele>783.52</ele>
        <time>2021-02-24T11:35:27.176Z</time>
      </trkpt>
      <trkpt lat="47.01332" lon="7.33224">
        <ele>783.48</ele>
        <time>2021-02-24T11:35:32.117Z</time>
      </trkpt>
      <trkpt lat="47.01332" lon="7.33233">
        <ele>783.1</ele>
        <time>2021-02-24T11:35:33.370Z</time>
      </trkpt>
      <trkpt lat="47.01345" lon="7.33273">
        <ele>781.81</ele>
        <time>2021-02-24T11:35:40.635Z</time>
      </trkpt>
      <trkpt lat="47.01356" lon="7.33312">
        <ele>780.41</ele>
        <time>2021-02-24T11:35:47.193Z</time>
      </trkpt>
      <trkpt lat="47.01361" lon="7.33324">
        <ele>779.82</ele>
        <time>2021-02-24T11:35:49.156Z</time>
      </trkpt>
      <trkpt lat="47.01368" lon="7.33336">
        <ele>779.44</ele>
        <time>2021-02-24T11:35:51.936Z</time>
      </trkpt>
      <trkpt lat="47.01376" lon="7.33346">
        <ele>778.95</ele>
        <time>2021-02-24T11:35:54.376Z</time>
      </trkpt>
      <trkpt lat="47.01384" lon="7.33354">
        <ele>778.75</ele>
        <time>2021-02-24T11:35:57.301Z</time>
      </trkpt>
      <trkpt lat="47.01419" lon="7.33382">
        <ele>778.18</ele>
        <time>2021-02-24T11:36:10.310Z</time>
      </trkpt>
      <trkpt lat="47.01428" lon="7.33388">
        <ele>778.07</ele>
        <time>2021-02-24T11:36:13.670Z</time>
      </trkpt>
      <trkpt lat="47.01419" lon="7.33392">
        <ele>777.97</ele>
        <time>2021-02-24T11:36:16.886Z</time>
      </trkpt>
      <trkpt lat="47.01408" lon="7.33398">
        <ele>777.46</ele>
        <time>2021-02-24T11:36:19.689Z</time>
      </trkpt>
      <trkpt lat="47.01399" lon="7.33403">
        <ele>777.66</ele>
        <time>2021-02-24T11:36:30.865Z</time>
      </trkpt>
      <trkpt lat="47.01387" lon="7.33412">
        <ele>777.79</ele>
        <time>2021-02-24T11:36:44.765Z</time>
      </trkpt>
      <trkpt lat="47.01377" lon="7.33422">
        <ele>777.73</ele>
        <time>2021-02-24T11:36:55.341Z</time>
      </trkpt>
      <trkpt lat="47.01357" lon="7.33446">
        <ele>778.36</ele>
        <time>2021-02-24T11:37:26.623Z</time>
      </trkpt>
      <trkpt lat="47.01327" lon="7.33478">
        <ele>779.08</ele>
        <time>2021-02-24T11:38:09.042Z</time>
      </trkpt>
      <trkpt lat="47.01302" lon="7.33504">
        <ele>779.61</ele>
        <time>2021-02-24T11:38:43.281Z</time>
      </trkpt>
      <trkpt lat="47.01276" lon="7.33527">
        <ele>780.25</ele>
        <time>2021-02-24T11:39:18.660Z</time>
      </trkpt>
      <trkpt lat="47.01259" lon="7.33545">
        <ele>780.07</ele>
        <time>2021-02-24T11:39:26.030Z</time>
      </trkpt>
      <trkpt lat="47.01251" lon="7.33554">
        <ele>779.57</ele>
        <time>2021-02-24T11:39:28.309Z</time>
      </trkpt>
      <trkpt lat="47.01239" lon="7.33567">
        <ele>778.71</ele>
        <time>2021-02-24T11:39:31.460Z</time>
      </trkpt>
      <trkpt lat="47.0123" lon="7.33576">
        <ele>777.69</ele>
        <time>2021-02-24T11:39:33.800Z</time>
      </trkpt>
      <trkpt lat="47.01222" lon="7.33581">
        <ele>776.84</ele>
        <time>2021-02-24T11:39:35.668Z</time>
      </trkpt>
      <trkpt lat="47.01215" lon="7.33584">
        <ele>776.01</ele>
        <time>2021-02-24T11:39:37.235Z</time>
      </trkpt>
      <trkpt lat="47.01209" lon="7.33585">
        <ele>775.28</ele>
        <time>2021-02-24T11:39:38.532Z</time>
      </trkpt>
      <trkpt lat="47.01175" lon="7.33587">
        <ele>772.1</ele>
        <time>2021-02-24T11:39:45.841Z</time>
      </trkpt>
      <trkpt lat="47.0115" lon="7.33589">
        <ele>771</ele>
        <time>2021-02-24T11:39:51.793Z</time>
      </trkpt>
      <trkpt lat="47.01138" lon="7.33591">
        <ele>769.94</ele>
        <time>2021-02-24T11:39:54.387Z</time>
      </trkpt>
      <trkpt lat="47.01124" lon="7.33595">
        <ele>768.27</ele>
        <time>2021-02-24T11:39:57.451Z</time>
      </trkpt>
      <trkpt lat="47.01075" lon="7.33609">
        <ele>760.49</ele>
        <time>2021-02-24T11:40:08.174Z</time>
      </trkpt>
      <trkpt lat="47.01062" lon="7.33613">
        <ele>758.33</ele>
        <time>2021-02-24T11:40:11.027Z</time>
      </trkpt>
      <trkpt lat="47.01051" lon="7.33617">
        <ele>756.7</ele>
        <time>2021-02-24T11:40:13.462Z</time>
      </trkpt>
      <trkpt lat="47.01042" lon="7.33621">
        <ele>755.4</ele>
        <time>2021-02-24T11:40:15.482Z</time>
      </trkpt>
      <trkpt lat="47.01032" lon="7.33627">
        <ele>753.58</ele>
        <time>2021-02-24T11:40:17.802Z</time>
      </trkpt>
      <trkpt lat="47.01022" lon="7.33635">
        <ele>751.71</ele>
        <time>2021-02-24T11:40:20.249Z</time>
      </trkpt>
      <trkpt lat="47.01013" lon="7.33644">
        <ele>750.16</ele>
        <time>2021-02-24T11:40:22.589Z</time>
      </trkpt>
      <trkpt lat="47.01005" lon="7.33654">
        <ele>748.39</ele>
        <time>2021-02-24T11:40:24.847Z</time>
      </trkpt>
      <trkpt lat="47.00995" lon="7.33668">
        <ele>746.08</ele>
        <time>2021-02-24T11:40:27.816Z</time>
      </trkpt>
      <trkpt lat="47.0099" lon="7.33675">
        <ele>745</ele>
        <time>2021-02-24T11:40:29.301Z</time>
      </trkpt>
      <trkpt lat="47.00986" lon="7.33678">
        <ele>745</ele>
        <time>2021-02-24T11:40:33.525Z</time>
      </trkpt>
      <trkpt lat="47.00985" lon="7.33683">
        <ele>744.83</ele>
        <time>2021-02-24T11:40:34.341Z</time>
      </trkpt>
      <trkpt lat="47.00983" lon="7.33689">
        <ele>744.39</ele>
        <time>2021-02-24T11:40:35.319Z</time>
      </trkpt>
      <trkpt lat="47.00981" lon="7.33696">
        <ele>744.18</ele>
        <time>2021-02-24T11:40:36.588Z</time>
      </trkpt>
      <trkpt lat="47.00974" lon="7.33695">
        <ele>744.13</ele>
        <time>2021-02-24T11:40:42.551Z</time>
      </trkpt>
      <trkpt lat="47.0096" lon="7.33693">
        <ele>743.81</ele>
        <time>2021-02-24T11:40:46.700Z</time>
      </trkpt>
      <trkpt lat="47.00927" lon="7.33688">
        <ele>743.87</ele>
        <time>2021-02-24T11:41:18.418Z</time>
      </trkpt>
      <trkpt lat="47.0092" lon="7.33688">
        <ele>743.93</ele>
        <time>2021-02-24T11:41:25.560Z</time>
      </trkpt>
      <trkpt lat="47.00912" lon="7.3369">
        <ele>744.18</ele>
        <time>2021-02-24T11:41:36.190Z</time>
      </trkpt>
      <trkpt lat="47.00903" lon="7.33693">
        <ele>744.53</ele>
        <time>2021-02-24T11:41:49.486Z</time>
      </trkpt>
      <trkpt lat="47.00901" lon="7.33694">
        <ele>744.67</ele>
        <time>2021-02-24T11:41:53.374Z</time>
      </trkpt>
      <trkpt lat="47.0089" lon="7.337">
        <ele>745.25</ele>
        <time>2021-02-24T11:42:12.596Z</time>
      </trkpt>
      <trkpt lat="47.0087" lon="7.33713">
        <ele>746.63</ele>
        <time>2021-02-24T11:42:51.933Z</time>
      </trkpt>
      <trkpt lat="47.00845" lon="7.33732">
        <ele>748.47</ele>
        <time>2021-02-24T11:43:43.400Z</time>
      </trkpt>
      <trkpt lat="47.00828" lon="7.33746">
        <ele>749.65</ele>
        <time>2021-02-24T11:44:17.827Z</time>
      </trkpt>
      <trkpt lat="47.00805" lon="7.33763">
        <ele>751.32</ele>
        <time>2021-02-24T11:45:04.730Z</time>
      </trkpt>
      <trkpt lat="47.00796" lon="7.33768">
        <ele>751.89</ele>
        <time>2021-02-24T11:45:21.571Z</time>
      </trkpt>
      <trkpt lat="47.00786" lon="7.33772">
        <ele>752.39</ele>
        <time>2021-02-24T11:45:38.417Z</time>
      </trkpt>
      <trkpt lat="47.00781" lon="7.33773">
        <ele>752.71</ele>
        <time>2021-02-24T11:45:47.513Z</time>
      </trkpt>
      <trkpt lat="47.00773" lon="7.33774">
        <ele>753.2</ele>
        <time>2021-02-24T11:46:01.741Z</time>
      </trkpt>
      <trkpt lat="47.00766" lon="7.33775">
        <ele>753.32</ele>
        <time>2021-02-24T11:46:09.578Z</time>
      </trkpt>
      <trkpt lat="47.0076" lon="7.33776">
        <ele>753.42</ele>
        <time>2021-02-24T11:46:16.271Z</time>
      </trkpt>
      <trkpt lat="47.00747" lon="7.33777">
        <ele>753.42</ele>
        <time>2021-02-24T11:46:28.511Z</time>
      </trkpt>
      <trkpt lat="47.00737" lon="7.33776">
        <ele>753.39</ele>
        <time>2021-02-24T11:46:37.521Z</time>
      </trkpt>
      <trkpt lat="47.00731" lon="7.33774">
        <ele>753.45</ele>
        <time>2021-02-24T11:46:43.874Z</time>
      </trkpt>
      <trkpt lat="47.00724" lon="7.3377">
        <ele>753.38</ele>
        <time>2021-02-24T11:46:46.489Z</time>
      </trkpt>
      <trkpt lat="47.00714" lon="7.33763">
        <ele>753.25</ele>
        <time>2021-02-24T11:46:50.225Z</time>
      </trkpt>
      <trkpt lat="47.00692" lon="7.33744">
        <ele>753.1</ele>
        <time>2021-02-24T11:47:12.248Z</time>
      </trkpt>
      <trkpt lat="47.00687" lon="7.3374">
        <ele>752.92</ele>
        <time>2021-02-24T11:47:13.774Z</time>
      </trkpt>
      <trkpt lat="47.00686" lon="7.3374">
        <ele>752.92</ele>
        <time>2021-02-24T11:47:14.714Z</time>
      </trkpt>
      <trkpt lat="47.0067" lon="7.33725">
        <ele>752.74</ele>
        <time>2021-02-24T11:47:21.310Z</time>
      </trkpt>
      <trkpt lat="47.00646" lon="7.33706">
        <ele>752.82</ele>
        <time>2021-02-24T11:47:47.662Z</time>
      </trkpt>
      <trkpt lat="47.0063" lon="7.33694">
        <ele>752.92</ele>
        <time>2021-02-24T11:48:05.466Z</time>
      </trkpt>
      <trkpt lat="47.00619" lon="7.33686">
        <ele>753.02</ele>
        <time>2021-02-24T11:48:17.941Z</time>
      </trkpt>
      <trkpt lat="47.00614" lon="7.33682">
        <ele>753.22</ele>
        <time>2021-02-24T11:48:25.835Z</time>
      </trkpt>
      <trkpt lat="47.00606" lon="7.33678">
        <ele>753.35</ele>
        <time>2021-02-24T11:48:35.085Z</time>
      </trkpt>
      <trkpt lat="47.00585" lon="7.33667">
        <ele>753.57</ele>
        <time>2021-02-24T11:48:58.135Z</time>
      </trkpt>
      <trkpt lat="47.00581" lon="7.33665">
        <ele>753.68</ele>
        <time>2021-02-24T11:49:03.352Z</time>
      </trkpt>
      <trkpt lat="47.00569" lon="7.3366">
        <ele>753.7</ele>
        <time>2021-02-24T11:49:15.256Z</time>
      </trkpt>
      <trkpt lat="47.00557" lon="7.33655">
        <ele>753.91</ele>
        <time>2021-02-24T11:49:29.123Z</time>
      </trkpt>
      <trkpt lat="47.00507" lon="7.33643">
        <ele>756.23</ele>
        <time>2021-02-24T11:50:50.182Z</time>
      </trkpt>
      <trkpt lat="47.00442" lon="7.33629">
        <ele>760.12</ele>
        <time>2021-02-24T11:52:45.127Z</time>
      </trkpt>
      <trkpt lat="47.00438" lon="7.33628">
        <ele>760.47</ele>
        <time>2021-02-24T11:52:53.877Z</time>
      </trkpt>
      <trkpt lat="47.00433" lon="7.33628">
        <ele>760.91</ele>
        <time>2021-02-24T11:53:04.822Z</time>
      </trkpt>
      <trkpt lat="47.00429" lon="7.33628">
        <ele>760.85</ele>
        <time>2021-02-24T11:53:06.116Z</time>
      </trkpt>
      <trkpt lat="47.00424" lon="7.33629">
        <ele>761.25</ele>
        <time>2021-02-24T11:53:16.380Z</time>
      </trkpt>
      <trkpt lat="47.0042" lon="7.33631">
        <ele>761.53</ele>
        <time>2021-02-24T11:53:24.156Z</time>
      </trkpt>
      <trkpt lat="47.00417" lon="7.33634">
        <ele>761.71</ele>
        <time>2021-02-24T11:53:30.109Z</time>
      </trkpt>
      <trkpt lat="47.00413" lon="7.33638">
        <ele>761.9</ele>
        <time>2021-02-24T11:53:37.216Z</time>
      </trkpt>
      <trkpt lat="47.0041" lon="7.33642">
        <ele>761.97</ele>
        <time>2021-02-24T11:53:41.744Z</time>
      </trkpt>
      <trkpt lat="47.00405" lon="7.3365">
        <ele>762.29</ele>
        <time>2021-02-24T11:53:53.265Z</time>
      </trkpt>
      <trkpt lat="47.00402" lon="7.33644">
        <ele>762.42</ele>
        <time>2021-02-24T11:53:59.499Z</time>
      </trkpt>
      <trkpt lat="47.00399" lon="7.33638">
        <ele>762.51</ele>
        <time>2021-02-24T11:54:05.194Z</time>
      </trkpt>
      <trkpt lat="47.00397" lon="7.33631">
        <ele>762.67</ele>
        <time>2021-02-24T11:54:11.983Z</time>
      </trkpt>
      <trkpt lat="47.00394" lon="7.33622">
        <ele>762.73</ele>
        <time>2021-02-24T11:54:18.968Z</time>
      </trkpt>
      <trkpt lat="47.0039" lon="7.33606">
        <ele>763.44</ele>
        <time>2021-02-24T11:54:39.571Z</time>
      </trkpt>
      <trkpt lat="47.00381" lon="7.33566">
        <ele>764.46</ele>
        <time>2021-02-24T11:55:19.597Z</time>
      </trkpt>
      <trkpt lat="47.00375" lon="7.33541">
        <ele>765.11</ele>
        <time>2021-02-24T11:55:44.938Z</time>
      </trkpt>
      <trkpt lat="47.0037" lon="7.33514">
        <ele>765.96</ele>
        <time>2021-02-24T11:56:15.224Z</time>
      </trkpt>
      <trkpt lat="47.00367" lon="7.33498">
        <ele>766.62</ele>
        <time>2021-02-24T11:56:34.901Z</time>
      </trkpt>
      <trkpt lat="47.00364" lon="7.3348">
        <ele>767.61</ele>
        <time>2021-02-24T11:57:00.414Z</time>
      </trkpt>
      <trkpt lat="47.00356" lon="7.33434">
        <ele>771.01</ele>
        <time>2021-02-24T11:58:23.643Z</time>
      </trkpt>
      <trkpt lat="47.00353" lon="7.33417">
        <ele>772.07</ele>
        <time>2021-02-24T11:58:49.975Z</time>
      </trkpt>
      <trkpt lat="47.00351" lon="7.33408">
        <ele>772.63</ele>
        <time>2021-02-24T11:59:03.954Z</time>
      </trkpt>
      <trkpt lat="47.0035" lon="7.33399">
        <ele>773.18</ele>
        <time>2021-02-24T11:59:17.620Z</time>
      </trkpt>
      <trkpt lat="47.00347" lon="7.33394">
        <ele>773.35</ele>
        <time>2021-02-24T11:59:24.118Z</time>
      </trkpt>
      <trkpt lat="47.00344" lon="7.33388">
        <ele>773.64</ele>
        <time>2021-02-24T11:59:32.870Z</time>
      </trkpt>
      <trkpt lat="47.00336" lon="7.3337">
        <ele>774.29</ele>
        <time>2021-02-24T11:59:56.075Z</time>
      </trkpt>
      <trkpt lat="47.00334" lon="7.33363">
        <ele>774.77</ele>
        <time>2021-02-24T12:00:07.894Z</time>
      </trkpt>
      <trkpt lat="47.00332" lon="7.33352">
        <ele>775.67</ele>
        <time>2021-02-24T12:00:30.363Z</time>
      </trkpt>
      <trkpt lat="47.0033" lon="7.33338">
        <ele>777.29</ele>
        <time>2021-02-24T12:01:05.739Z</time>
      </trkpt>
      <trkpt lat="47.00324" lon="7.33299">
        <ele>781.71</ele>
        <time>2021-02-24T12:02:44.615Z</time>
      </trkpt>
      <trkpt lat="47.00322" lon="7.33291">
        <ele>782.73</ele>
        <time>2021-02-24T12:03:05.688Z</time>
      </trkpt>
      <trkpt lat="47.00316" lon="7.33265">
        <ele>785.81</ele>
        <time>2021-02-24T12:04:13.572Z</time>
      </trkpt>
      <trkpt lat="47.00312" lon="7.33251">
        <ele>786.42</ele>
        <time>2021-02-24T12:04:31.647Z</time>
      </trkpt>
      <trkpt lat="47.0031" lon="7.33243">
        <ele>786.91</ele>
        <time>2021-02-24T12:04:43.972Z</time>
      </trkpt>
      <trkpt lat="47.00306" lon="7.33225">
        <ele>788.15</ele>
        <time>2021-02-24T12:05:14.368Z</time>
      </trkpt>
      <trkpt lat="47.00301" lon="7.33204">
        <ele>789.57</ele>
        <time>2021-02-24T12:05:49.283Z</time>
      </trkpt>
      <trkpt lat="47.00297" lon="7.3318">
        <ele>790.9</ele>
        <time>2021-02-24T12:06:23.463Z</time>
      </trkpt>
      <trkpt lat="47.00295" lon="7.33169">
        <ele>791.26</ele>
        <time>2021-02-24T12:06:35.930Z</time>
      </trkpt>
      <trkpt lat="47.0029" lon="7.33143">
        <ele>792.65</ele>
        <time>2021-02-24T12:07:12.279Z</time>
      </trkpt>
      <trkpt lat="47.00288" lon="7.33131">
        <ele>793.14</ele>
        <time>2021-02-24T12:07:26.911Z</time>
      </trkpt>
      <trkpt lat="47.00281" lon="7.33086">
        <ele>795.8</ele>
        <time>2021-02-24T12:08:33.778Z</time>
      </trkpt>
      <trkpt lat="47.00279" lon="7.33065">
        <ele>796.9</ele>
        <time>2021-02-24T12:09:02.448Z</time>
      </trkpt>
      <trkpt lat="47.00278" lon="7.33039">
        <ele>798.61</ele>
        <time>2021-02-24T12:09:44.354Z</time>
      </trkpt>
      <trkpt lat="47.00277" lon="7.33034">
        <ele>799</ele>
        <time>2021-02-24T12:09:53.955Z</time>
      </trkpt>
      <trkpt lat="47.00275" lon="7.33019">
        <ele>799.49</ele>
        <time>2021-02-24T12:10:10.761Z</time>
      </trkpt>
      <trkpt lat="47.00271" lon="7.32998">
        <ele>800.4</ele>
        <time>2021-02-24T12:10:37.143Z</time>
      </trkpt>
      <trkpt lat="47.00266" lon="7.32956">
        <ele>801.62</ele>
        <time>2021-02-24T12:11:21.546Z</time>
      </trkpt>
      <trkpt lat="47.00263" lon="7.32937">
        <ele>802.11</ele>
        <time>2021-02-24T12:11:40.420Z</time>
      </trkpt>
      <trkpt lat="47.00258" lon="7.32906">
        <ele>803.48</ele>
        <time>2021-02-24T12:12:19.478Z</time>
      </trkpt>
      <trkpt lat="47.00256" lon="7.32897">
        <ele>803.65</ele>
        <time>2021-02-24T12:12:27.477Z</time>
      </trkpt>
      <trkpt lat="47.00253" lon="7.32887">
        <ele>804.23</ele>
        <time>2021-02-24T12:12:42.460Z</time>
      </trkpt>
      <trkpt lat="47.00247" lon="7.32873">
        <ele>804.55</ele>
        <time>2021-02-24T12:12:56.786Z</time>
      </trkpt>
      <trkpt lat="47.0024" lon="7.32858">
        <ele>804.64</ele>
        <time>2021-02-24T12:13:09.270Z</time>
      </trkpt>
      <trkpt lat="47.00236" lon="7.32851">
        <ele>804.32</ele>
        <time>2021-02-24T12:13:10.656Z</time>
      </trkpt>
      <trkpt lat="47.00233" lon="7.32843">
        <ele>804.26</ele>
        <time>2021-02-24T12:13:12.814Z</time>
      </trkpt>
      <trkpt lat="47.00232" lon="7.32838">
        <ele>804.51</ele>
        <time>2021-02-24T12:13:19.555Z</time>
      </trkpt>
      <trkpt lat="47.00231" lon="7.32834">
        <ele>804.33</ele>
        <time>2021-02-24T12:13:20.148Z</time>
      </trkpt>
      <trkpt lat="47.0023" lon="7.32829">
        <ele>804.25</ele>
        <time>2021-02-24T12:13:21.199Z</time>
      </trkpt>
      <trkpt lat="47.0023" lon="7.32822">
        <ele>804.18</ele>
        <time>2021-02-24T12:13:22.750Z</time>
      </trkpt>
      <trkpt lat="47.00229" lon="7.32812">
        <ele>804.33</ele>
        <time>2021-02-24T12:13:30.844Z</time>
      </trkpt>
      <trkpt lat="47.00228" lon="7.32779">
        <ele>804.86</ele>
        <time>2021-02-24T12:13:57.842Z</time>
      </trkpt>
      <trkpt lat="47.00227" lon="7.32765">
        <ele>804.96</ele>
        <time>2021-02-24T12:14:07.820Z</time>
      </trkpt>
      <trkpt lat="47.00226" lon="7.32752">
        <ele>805.08</ele>
        <time>2021-02-24T12:14:17.387Z</time>
      </trkpt>
      <trkpt lat="47.00223" lon="7.32733">
        <ele>805.29</ele>
        <time>2021-02-24T12:14:32.007Z</time>
      </trkpt>
      <trkpt lat="47.00221" lon="7.32718">
        <ele>805.32</ele>
        <time>2021-02-24T12:14:42.072Z</time>
      </trkpt>
      <trkpt lat="47.00218" lon="7.32704">
        <ele>805.25</ele>
        <time>2021-02-24T12:14:50.571Z</time>
      </trkpt>
      <trkpt lat="47.00214" lon="7.32685">
        <ele>805</ele>
        <time>2021-02-24T12:14:54.777Z</time>
      </trkpt>
      <trkpt lat="47.00208" lon="7.32666">
        <ele>804.68</ele>
        <time>2021-02-24T12:14:59.005Z</time>
      </trkpt>
      <trkpt lat="47.00203" lon="7.32649">
        <ele>804.21</ele>
        <time>2021-02-24T12:15:02.203Z</time>
      </trkpt>
      <trkpt lat="47.00197" lon="7.32633">
        <ele>803.81</ele>
        <time>2021-02-24T12:15:05.523Z</time>
      </trkpt>
      <trkpt lat="47.00193" lon="7.3262">
        <ele>803.55</ele>
        <time>2021-02-24T12:15:08.267Z</time>
      </trkpt>
      <trkpt lat="47.0019" lon="7.3261">
        <ele>803.49</ele>
        <time>2021-02-24T12:15:10.905Z</time>
      </trkpt>
      <trkpt lat="47.00188" lon="7.326">
        <ele>803.42</ele>
        <time>2021-02-24T12:15:13.362Z</time>
      </trkpt>
      <trkpt lat="47.00185" lon="7.32587">
        <ele>803.53</ele>
        <time>2021-02-24T12:15:23.223Z</time>
      </trkpt>
      <trkpt lat="47.00183" lon="7.32572">
        <ele>803.71</ele>
        <time>2021-02-24T12:15:34.865Z</time>
      </trkpt>
      <trkpt lat="47.00182" lon="7.32558">
        <ele>803.85</ele>
        <time>2021-02-24T12:15:45.282Z</time>
      </trkpt>
      <trkpt lat="47.00181" lon="7.32536">
        <ele>804.05</ele>
        <time>2021-02-24T12:16:01.382Z</time>
      </trkpt>
      <trkpt lat="47.00179" lon="7.32527">
        <ele>804.13</ele>
        <time>2021-02-24T12:16:08.228Z</time>
      </trkpt>
      <trkpt lat="47.00178" lon="7.32521">
        <ele>804.1</ele>
        <time>2021-02-24T12:16:11.799Z</time>
      </trkpt>
      <trkpt lat="47.00184" lon="7.32489">
        <ele>827.7</ele>
        <time>2021-02-24T12:17:34.909Z</time>
      </trkpt>
      <trkpt lat="47.00175" lon="7.32423">
        <ele>826.5</ele>
        <time>2021-02-24T12:17:47.957Z</time>
      </trkpt>
      <trkpt lat="47.0015" lon="7.32214">
        <ele>827.2</ele>
        <time>2021-02-24T12:20:10.169Z</time>
      </trkpt>
      <trkpt lat="47.00146" lon="7.32172">
        <ele>826.3</ele>
        <time>2021-02-24T12:20:18.005Z</time>
      </trkpt>
      <trkpt lat="47.00159" lon="7.32018">
        <ele>828.1</ele>
        <time>2021-02-24T12:22:15.346Z</time>
      </trkpt>
      <trkpt lat="47.00155" lon="7.31963">
        <ele>830.2</ele>
        <time>2021-02-24T12:23:20.055Z</time>
      </trkpt>
      <trkpt lat="47.00139" lon="7.31902">
        <ele>832.2</ele>
        <time>2021-02-24T12:24:30.865Z</time>
      </trkpt>
      <trkpt lat="47.00121" lon="7.31849">
        <ele>833.3</ele>
        <time>2021-02-24T12:25:21.375Z</time>
      </trkpt>
      <trkpt lat="47.00128" lon="7.31773">
        <ele>831.2</ele>
        <time>2021-02-24T12:25:34.405Z</time>
      </trkpt>
      <trkpt lat="47.00177" lon="7.31553">
        <ele>820.2</ele>
        <time>2021-02-24T12:26:08.181Z</time>
      </trkpt>
      <trkpt lat="47.00207" lon="7.31413">
        <ele>819.8</ele>
        <time>2021-02-24T12:27:37.033Z</time>
      </trkpt>
      <trkpt lat="47.00222" lon="7.31273">
        <ele>820</ele>
        <time>2021-02-24T12:29:09.581Z</time>
      </trkpt>
      <trkpt lat="47.0024" lon="7.31102">
        <ele>819.8</ele>
        <time>2021-02-24T12:30:58.171Z</time>
      </trkpt>
      <trkpt lat="47.00258" lon="7.3098">
        <ele>812.6</ele>
        <time>2021-02-24T12:31:16.388Z</time>
      </trkpt>
      <trkpt lat="47.00285" lon="7.30835">
        <ele>812.2</ele>
        <time>2021-02-24T12:32:47.515Z</time>
      </trkpt>
      <trkpt lat="47.00314" lon="7.30682">
        <ele>817.7</ele>
        <time>2021-02-24T12:35:46.586Z</time>
      </trkpt>
      <trkpt lat="47.00319" lon="7.30513">
        <ele>814.6</ele>
        <time>2021-02-24T12:36:19.115Z</time>
      </trkpt>
      <trkpt lat="47.00315" lon="7.30407">
        <ele>812.5</ele>
        <time>2021-02-24T12:36:38.964Z</time>
      </trkpt>
      <trkpt lat="47.00279" lon="7.3019">
        <ele>806.9</ele>
        <time>2021-02-24T12:37:17.631Z</time>
      </trkpt>
      <trkpt lat="47.00261" lon="7.30085">
        <ele>802.4</ele>
        <time>2021-02-24T12:37:32.954Z</time>
      </trkpt>
      <trkpt lat="47.00254" lon="7.29989">
        <ele>803.3</ele>
        <time>2021-02-24T12:38:43.181Z</time>
      </trkpt>
      <trkpt lat="47.00242" lon="7.29852">
        <ele>798.4</ele>
        <time>2021-02-24T12:39:04.137Z</time>
      </trkpt>
      <trkpt lat="47.00251" lon="7.29733">
        <ele>794.2</ele>
        <time>2021-02-24T12:39:22.275Z</time>
      </trkpt>
      <trkpt lat="47.00265" lon="7.29633">
        <ele>793</ele>
        <time>2021-02-24T12:39:44.312Z</time>
      </trkpt>
      <trkpt lat="47.00195" lon="7.2948">
        <ele>785.6</ele>
        <time>2021-02-24T12:40:10.667Z</time>
      </trkpt>
      <trkpt lat="47.0015" lon="7.29371">
        <ele>774.9</ele>
        <time>2021-02-24T12:40:29.251Z</time>
      </trkpt>
      <trkpt lat="47.00119" lon="7.29321">
        <ele>767.7</ele>
        <time>2021-02-24T12:40:39.117Z</time>
      </trkpt>
      <trkpt lat="47.00078" lon="7.29266">
        <ele>755</ele>
        <time>2021-02-24T12:40:51.170Z</time>
      </trkpt>
      <trkpt lat="47.0004" lon="7.29231">
        <ele>748</ele>
        <time>2021-02-24T12:41:00.728Z</time>
      </trkpt>
      <trkpt lat="46.99984" lon="7.29186">
        <ele>740.1</ele>
        <time>2021-02-24T12:41:14.410Z</time>
      </trkpt>
      <trkpt lat="46.99908" lon="7.29139">
        <ele>727</ele>
        <time>2021-02-24T12:41:32.094Z</time>
      </trkpt>
      <trkpt lat="46.99908" lon="7.29129">
        <ele>726.84</ele>
        <time>2021-02-24T12:41:34.039Z</time>
      </trkpt>
      <trkpt lat="46.99906" lon="7.29127">
        <ele>726.57</ele>
        <time>2021-02-24T12:41:34.559Z</time>
      </trkpt>
      <trkpt lat="46.99905" lon="7.29123">
        <ele>726.22</ele>
        <time>2021-02-24T12:41:35.183Z</time>
      </trkpt>
      <trkpt lat="46.99902" lon="7.29115">
        <ele>725.45</ele>
        <time>2021-02-24T12:41:36.521Z</time>
      </trkpt>
      <trkpt lat="46.99884" lon="7.29049">
        <ele>720.75</ele>
        <time>2021-02-24T12:41:46.934Z</time>
      </trkpt>
      <trkpt lat="46.99876" lon="7.29021">
        <ele>718.99</ele>
        <time>2021-02-24T12:41:51.381Z</time>
      </trkpt>
      <trkpt lat="46.99869" lon="7.29">
        <ele>717.71</ele>
        <time>2021-02-24T12:41:54.805Z</time>
      </trkpt>
      <trkpt lat="46.99865" lon="7.28988">
        <ele>717</ele>
        <time>2021-02-24T12:41:56.762Z</time>
      </trkpt>
      <trkpt lat="46.99856" lon="7.28971">
        <ele>715.86</ele>
        <time>2021-02-24T12:41:59.915Z</time>
      </trkpt>
      <trkpt lat="46.99837" lon="7.28936">
        <ele>713.05</ele>
        <time>2021-02-24T12:42:06.468Z</time>
      </trkpt>
      <trkpt lat="46.99832" lon="7.28925">
        <ele>712.23</ele>
        <time>2021-02-24T12:42:08.404Z</time>
      </trkpt>
      <trkpt lat="46.99827" lon="7.28912">
        <ele>711.46</ele>
        <time>2021-02-24T12:42:10.591Z</time>
      </trkpt>
      <trkpt lat="46.99826" lon="7.28907">
        <ele>711.2</ele>
        <time>2021-02-24T12:42:11.354Z</time>
      </trkpt>
      <trkpt lat="46.99826" lon="7.28901">
        <ele>710.82</ele>
        <time>2021-02-24T12:42:12.233Z</time>
      </trkpt>
      <trkpt lat="46.99826" lon="7.28868">
        <ele>708.98</ele>
        <time>2021-02-24T12:42:17.068Z</time>
      </trkpt>
      <trkpt lat="46.99825" lon="7.28836">
        <ele>707.72</ele>
        <time>2021-02-24T12:42:21.681Z</time>
      </trkpt>
      <trkpt lat="46.99823" lon="7.28807">
        <ele>706.49</ele>
        <time>2021-02-24T12:42:25.740Z</time>
      </trkpt>
      <trkpt lat="46.99822" lon="7.28795">
        <ele>705.98</ele>
        <time>2021-02-24T12:42:27.424Z</time>
      </trkpt>
      <trkpt lat="46.99819" lon="7.28759">
        <ele>704.77</ele>
        <time>2021-02-24T12:42:33.048Z</time>
      </trkpt>
      <trkpt lat="46.99817" lon="7.28745">
        <ele>704.5</ele>
        <time>2021-02-24T12:42:35.773Z</time>
      </trkpt>
      <trkpt lat="46.99828" lon="7.28752">
        <ele>705.79</ele>
        <time>2021-02-24T12:43:07.430Z</time>
      </trkpt>
      <trkpt lat="46.99836" lon="7.28756">
        <ele>706.77</ele>
        <time>2021-02-24T12:43:31.898Z</time>
      </trkpt>
      <trkpt lat="46.9984" lon="7.28759">
        <ele>707.33</ele>
        <time>2021-02-24T12:43:46.354Z</time>
      </trkpt>
      <trkpt lat="46.99843" lon="7.2876">
        <ele>707.69</ele>
        <time>2021-02-24T12:43:55.371Z</time>
      </trkpt>
      <trkpt lat="46.99858" lon="7.28769">
        <ele>709.61</ele>
        <time>2021-02-24T12:44:43.693Z</time>
      </trkpt>
      <trkpt lat="46.99881" lon="7.28784">
        <ele>711.83</ele>
        <time>2021-02-24T12:45:38.890Z</time>
      </trkpt>
      <trkpt lat="46.99903" lon="7.28799">
        <ele>713.19</ele>
        <time>2021-02-24T12:46:20.425Z</time>
      </trkpt>
      <trkpt lat="46.99919" lon="7.2881">
        <ele>713.87</ele>
        <time>2021-02-24T12:46:46.084Z</time>
      </trkpt>
      <trkpt lat="46.99928" lon="7.28816">
        <ele>714.03</ele>
        <time>2021-02-24T12:46:56.997Z</time>
      </trkpt>
      <trkpt lat="46.99928" lon="7.28815">
        <ele>714.03</ele>
        <time>2021-02-24T12:46:57.638Z</time>
      </trkpt>
      <trkpt lat="46.99933" lon="7.28819">
        <ele>714.2</ele>
        <time>2021-02-24T12:47:05.008Z</time>
      </trkpt>
      <trkpt lat="46.99951" lon="7.28831">
        <ele>714.73</ele>
        <time>2021-02-24T12:47:29.649Z</time>
      </trkpt>
      <trkpt lat="46.99976" lon="7.28847">
        <ele>716.49</ele>
        <time>2021-02-24T12:48:19.210Z</time>
      </trkpt>
      <trkpt lat="47" lon="7.28862">
        <ele>718.56</ele>
        <time>2021-02-24T12:49:12.310Z</time>
      </trkpt>
      <trkpt lat="47.00008" lon="7.28868">
        <ele>719.45</ele>
        <time>2021-02-24T12:49:34.078Z</time>
      </trkpt>
      <trkpt lat="47.00014" lon="7.28869">
        <ele>719.92</ele>
        <time>2021-02-24T12:49:46.220Z</time>
      </trkpt>
      <trkpt lat="47.00019" lon="7.2887">
        <ele>720.37</ele>
        <time>2021-02-24T12:49:57.381Z</time>
      </trkpt>
      <trkpt lat="47.00024" lon="7.28869">
        <ele>720.79</ele>
        <time>2021-02-24T12:50:07.986Z</time>
      </trkpt>
      <trkpt lat="47.0003" lon="7.28868">
        <ele>721.18</ele>
        <time>2021-02-24T12:50:18.963Z</time>
      </trkpt>
      <trkpt lat="47.00035" lon="7.28867">
        <ele>721.46</ele>
        <time>2021-02-24T12:50:27.568Z</time>
      </trkpt>
      <trkpt lat="47.00041" lon="7.28865">
        <ele>722.07</ele>
        <time>2021-02-24T12:50:42.487Z</time>
      </trkpt>
      <trkpt lat="47.00048" lon="7.28861">
        <ele>722.79</ele>
        <time>2021-02-24T12:51:00.140Z</time>
      </trkpt>
      <trkpt lat="47.00059" lon="7.28852">
        <ele>724.21</ele>
        <time>2021-02-24T12:51:35.300Z</time>
      </trkpt>
      <trkpt lat="47.00082" lon="7.28836">
        <ele>726.8</ele>
        <time>2021-02-24T12:52:38.617Z</time>
      </trkpt>
      <trkpt lat="47.00108" lon="7.28817">
        <ele>728.77</ele>
        <time>2021-02-24T12:53:32.687Z</time>
      </trkpt>
      <trkpt lat="47.00126" lon="7.28805">
        <ele>729.73</ele>
        <time>2021-02-24T12:54:04.888Z</time>
      </trkpt>
      <trkpt lat="47.00146" lon="7.2879">
        <ele>730.35</ele>
        <time>2021-02-24T12:54:33.156Z</time>
      </trkpt>
      <trkpt lat="47.00165" lon="7.28776">
        <ele>730.65</ele>
        <time>2021-02-24T12:54:56.116Z</time>
      </trkpt>
      <trkpt lat="47.00184" lon="7.28763">
        <ele>730.81</ele>
        <time>2021-02-24T12:55:17.310Z</time>
      </trkpt>
      <trkpt lat="47.00196" lon="7.28754">
        <ele>730.85</ele>
        <time>2021-02-24T12:55:30.337Z</time>
      </trkpt>
      <trkpt lat="47.002" lon="7.28753">
        <ele>730.88</ele>
        <time>2021-02-24T12:55:34.430Z</time>
      </trkpt>
      <trkpt lat="47.00205" lon="7.28752">
        <ele>730.95</ele>
        <time>2021-02-24T12:55:39.865Z</time>
      </trkpt>
      <trkpt lat="47.00207" lon="7.28752">
        <ele>730.98</ele>
        <time>2021-02-24T12:55:42.045Z</time>
      </trkpt>
      <trkpt lat="47.00212" lon="7.28753">
        <ele>731.08</ele>
        <time>2021-02-24T12:55:47.841Z</time>
      </trkpt>
      <trkpt lat="47.00219" lon="7.28756">
        <ele>731.37</ele>
        <time>2021-02-24T12:55:58.627Z</time>
      </trkpt>
      <trkpt lat="47.00224" lon="7.28758">
        <ele>731.62</ele>
        <time>2021-02-24T12:56:07.050Z</time>
      </trkpt>
      <trkpt lat="47.00227" lon="7.28757">
        <ele>731.69</ele>
        <time>2021-02-24T12:56:10.704Z</time>
      </trkpt>
      <trkpt lat="47.00235" lon="7.28752">
        <ele>732.09</ele>
        <time>2021-02-24T12:56:24.636Z</time>
      </trkpt>
      <trkpt lat="47.00237" lon="7.28755">
        <ele>732.17</ele>
        <time>2021-02-24T12:56:28.252Z</time>
      </trkpt>
      <trkpt lat="47.00244" lon="7.28761">
        <ele>732.45</ele>
        <time>2021-02-24T12:56:39.402Z</time>
      </trkpt>
      <trkpt lat="47.00278" lon="7.28788">
        <ele>734.37</ele>
        <time>2021-02-24T12:57:42.827Z</time>
      </trkpt>
      <trkpt lat="47.00309" lon="7.28812">
        <ele>736.32</ele>
        <time>2021-02-24T12:58:42.664Z</time>
      </trkpt>
      <trkpt lat="47.00343" lon="7.2884">
        <ele>737.89</ele>
        <time>2021-02-24T12:59:40.749Z</time>
      </trkpt>
      <trkpt lat="47.00364" lon="7.28856">
        <ele>738.86</ele>
        <time>2021-02-24T13:00:16.375Z</time>
      </trkpt>
      <trkpt lat="47.00415" lon="7.28899">
        <ele>739.51</ele>
        <time>2021-02-24T13:01:17.915Z</time>
      </trkpt>
      <trkpt lat="47.00434" lon="7.28919">
        <ele>739.31</ele>
        <time>2021-02-24T13:01:26.141Z</time>
      </trkpt>
      <trkpt lat="47.00443" lon="7.28928">
        <ele>739.38</ele>
        <time>2021-02-24T13:01:37.024Z</time>
      </trkpt>
      <trkpt lat="47.00452" lon="7.28938">
        <ele>739.34</ele>
        <time>2021-02-24T13:01:47.094Z</time>
      </trkpt>
      <trkpt lat="47.0046" lon="7.28949">
        <ele>740.02</ele>
        <time>2021-02-24T13:02:06.663Z</time>
      </trkpt>
      <trkpt lat="47.0047" lon="7.28961">
        <ele>740.4</ele>
        <time>2021-02-24T13:02:23.291Z</time>
      </trkpt>
      <trkpt lat="47.00488" lon="7.28984">
        <ele>740.91</ele>
        <time>2021-02-24T13:02:51.199Z</time>
      </trkpt>
      <trkpt lat="47.00501" lon="7.29">
        <ele>740.57</ele>
        <time>2021-02-24T13:02:56.365Z</time>
      </trkpt>
      <trkpt lat="47.00513" lon="7.29014">
        <ele>741.51</ele>
        <time>2021-02-24T13:03:23.591Z</time>
      </trkpt>
      <trkpt lat="47.0053" lon="7.29034">
        <ele>741.41</ele>
        <time>2021-02-24T13:03:42.736Z</time>
      </trkpt>
      <trkpt lat="47.00547" lon="7.29057">
        <ele>741.59</ele>
        <time>2021-02-24T13:04:06.153Z</time>
      </trkpt>
      <trkpt lat="47.00565" lon="7.29086">
        <ele>742.85</ele>
        <time>2021-02-24T13:04:49.301Z</time>
      </trkpt>
      <trkpt lat="47.00583" lon="7.29115">
        <ele>744.06</ele>
        <time>2021-02-24T13:05:31.937Z</time>
      </trkpt>
      <trkpt lat="47.00621" lon="7.29178">
        <ele>745.43</ele>
        <time>2021-02-24T13:06:40.966Z</time>
      </trkpt>
      <trkpt lat="47.00637" lon="7.29208">
        <ele>746.26</ele>
        <time>2021-02-24T13:07:15.491Z</time>
      </trkpt>
      <trkpt lat="47.00645" lon="7.29224">
        <ele>746.22</ele>
        <time>2021-02-24T13:07:27.661Z</time>
      </trkpt>
      <trkpt lat="47.00654" lon="7.29245">
        <ele>746.67</ele>
        <time>2021-02-24T13:07:48.687Z</time>
      </trkpt>
      <trkpt lat="47.00664" lon="7.29249">
        <ele>745.75</ele>
        <time>2021-02-24T13:07:50.914Z</time>
      </trkpt>
      <trkpt lat="47.00681" lon="7.2926">
        <ele>744.03</ele>
        <time>2021-02-24T13:07:54.905Z</time>
      </trkpt>
      <trkpt lat="47.007" lon="7.29271">
        <ele>741.65</ele>
        <time>2021-02-24T13:07:59.293Z</time>
      </trkpt>
      <trkpt lat="47.00713" lon="7.29281">
        <ele>740.26</ele>
        <time>2021-02-24T13:08:02.446Z</time>
      </trkpt>
      <trkpt lat="47.00732" lon="7.29299">
        <ele>738.47</ele>
        <time>2021-02-24T13:08:07.305Z</time>
      </trkpt>
      <trkpt lat="47.00782" lon="7.29342">
        <ele>732.12</ele>
        <time>2021-02-24T13:08:19.755Z</time>
      </trkpt>
      <trkpt lat="47.00801" lon="7.2936">
        <ele>730</ele>
        <time>2021-02-24T13:08:24.614Z</time>
      </trkpt>
      <trkpt lat="47.00803" lon="7.29363">
        <ele>729.79</ele>
        <time>2021-02-24T13:08:25.228Z</time>
      </trkpt>
      <trkpt lat="47.00807" lon="7.29368">
        <ele>729.58</ele>
        <time>2021-02-24T13:08:26.525Z</time>
      </trkpt>
      <trkpt lat="47.00809" lon="7.29373">
        <ele>729.26</ele>
        <time>2021-02-24T13:08:27.374Z</time>
      </trkpt>
      <trkpt lat="47.00813" lon="7.29382">
        <ele>728.8</ele>
        <time>2021-02-24T13:08:28.859Z</time>
      </trkpt>
      <trkpt lat="47.00823" lon="7.29404">
        <ele>728.25</ele>
        <time>2021-02-24T13:08:33.747Z</time>
      </trkpt>
      <trkpt lat="47.00829" lon="7.29413">
        <ele>727.58</ele>
        <time>2021-02-24T13:08:35.590Z</time>
      </trkpt>
      <trkpt lat="47.00837" lon="7.29423">
        <ele>726.91</ele>
        <time>2021-02-24T13:08:37.706Z</time>
      </trkpt>
      <trkpt lat="47.00845" lon="7.29435">
        <ele>725.88</ele>
        <time>2021-02-24T13:08:40.164Z</time>
      </trkpt>
      <trkpt lat="47.00854" lon="7.29453">
        <ele>724.59</ele>
        <time>2021-02-24T13:08:43.433Z</time>
      </trkpt>
      <trkpt lat="47.0086" lon="7.29467">
        <ele>723.54</ele>
        <time>2021-02-24T13:08:45.855Z</time>
      </trkpt>
      <trkpt lat="47.00864" lon="7.29483">
        <ele>722.6</ele>
        <time>2021-02-24T13:08:48.351Z</time>
      </trkpt>
      <trkpt lat="47.00868" lon="7.29494">
        <ele>722.14</ele>
        <time>2021-02-24T13:08:50.199Z</time>
      </trkpt>
      <trkpt lat="47.0087" lon="7.29499">
        <ele>722.05</ele>
        <time>2021-02-24T13:08:51.365Z</time>
      </trkpt>
      <trkpt lat="47.00876" lon="7.29505">
        <ele>721.35</ele>
        <time>2021-02-24T13:08:52.925Z</time>
      </trkpt>
      <trkpt lat="47.00882" lon="7.29509">
        <ele>721.01</ele>
        <time>2021-02-24T13:08:54.389Z</time>
      </trkpt>
      <trkpt lat="47.00885" lon="7.2952">
        <ele>720.72</ele>
        <time>2021-02-24T13:08:56.462Z</time>
      </trkpt>
      <trkpt lat="47.00893" lon="7.29539">
        <ele>720.3</ele>
        <time>2021-02-24T13:09:00.720Z</time>
      </trkpt>
      <trkpt lat="47.00907" lon="7.29565">
        <ele>718.39</ele>
        <time>2021-02-24T13:09:05.572Z</time>
      </trkpt>
      <trkpt lat="47.00919" lon="7.2959">
        <ele>717.24</ele>
        <time>2021-02-24T13:09:10.066Z</time>
      </trkpt>
      <trkpt lat="47.00924" lon="7.29599">
        <ele>716.64</ele>
        <time>2021-02-24T13:09:11.767Z</time>
      </trkpt>
      <trkpt lat="47.00931" lon="7.29608">
        <ele>715.91</ele>
        <time>2021-02-24T13:09:13.766Z</time>
      </trkpt>
      <trkpt lat="47.00945" lon="7.29624">
        <ele>715.19</ele>
        <time>2021-02-24T13:09:18.120Z</time>
      </trkpt>
      <trkpt lat="47.00966" lon="7.2965">
        <ele>713.55</ele>
        <time>2021-02-24T13:09:23.831Z</time>
      </trkpt>
      <trkpt lat="47.0097" lon="7.29654">
        <ele>713.29</ele>
        <time>2021-02-24T13:09:24.887Z</time>
      </trkpt>
      <trkpt lat="47.00974" lon="7.29656">
        <ele>712.89</ele>
        <time>2021-02-24T13:09:25.795Z</time>
      </trkpt>
      <trkpt lat="47.00974" lon="7.29659">
        <ele>712.95</ele>
        <time>2021-02-24T13:09:28.425Z</time>
      </trkpt>
      <trkpt lat="47.00975" lon="7.29662">
        <ele>713.1</ele>
        <time>2021-02-24T13:09:32.603Z</time>
      </trkpt>
      <trkpt lat="47.00976" lon="7.29665">
        <ele>713.1</ele>
        <time>2021-02-24T13:09:34.744Z</time>
      </trkpt>
      <trkpt lat="47.00982" lon="7.29678">
        <ele>712.94</ele>
        <time>2021-02-24T13:09:38.208Z</time>
      </trkpt>
      <trkpt lat="47.00994" lon="7.29701">
        <ele>712.48</ele>
        <time>2021-02-24T13:09:43.997Z</time>
      </trkpt>
      <trkpt lat="47.01008" lon="7.29727">
        <ele>712.08</ele>
        <time>2021-02-24T13:09:51.065Z</time>
      </trkpt>
      <trkpt lat="47.01025" lon="7.29761">
        <ele>711.75</ele>
        <time>2021-02-24T13:10:00.790Z</time>
      </trkpt>
      <trkpt lat="47.01092" lon="7.29889">
        <ele>707.67</ele>
        <time>2021-02-24T13:10:28.700Z</time>
      </trkpt>
      <trkpt lat="47.01099" lon="7.29904">
        <ele>707.18</ele>
        <time>2021-02-24T13:10:31.771Z</time>
      </trkpt>
      <trkpt lat="47.011" lon="7.2991">
        <ele>706.87</ele>
        <time>2021-02-24T13:10:32.675Z</time>
      </trkpt>
      <trkpt lat="47.01101" lon="7.29914">
        <ele>706.75</ele>
        <time>2021-02-24T13:10:33.383Z</time>
      </trkpt>
      <trkpt lat="47.01109" lon="7.29914">
        <ele>705.44</ele>
        <time>2021-02-24T13:10:35.101Z</time>
      </trkpt>
      <trkpt lat="47.01129" lon="7.29917">
        <ele>702.25</ele>
        <time>2021-02-24T13:10:39.420Z</time>
      </trkpt>
      <trkpt lat="47.01136" lon="7.2992">
        <ele>701.43</ele>
        <time>2021-02-24T13:10:40.986Z</time>
      </trkpt>
      <trkpt lat="47.0114" lon="7.29923">
        <ele>700.72</ele>
        <time>2021-02-24T13:10:41.951Z</time>
      </trkpt>
      <trkpt lat="47.01143" lon="7.29927">
        <ele>700.56</ele>
        <time>2021-02-24T13:10:42.956Z</time>
      </trkpt>
      <trkpt lat="47.01148" lon="7.29936">
        <ele>699.9</ele>
        <time>2021-02-24T13:10:44.657Z</time>
      </trkpt>
      <trkpt lat="47.01151" lon="7.29945">
        <ele>699.22</ele>
        <time>2021-02-24T13:10:46.124Z</time>
      </trkpt>
      <trkpt lat="47.01181" lon="7.30051">
        <ele>693.9</ele>
        <time>2021-02-24T13:11:02.933Z</time>
      </trkpt>
      <trkpt lat="47.01201" lon="7.30108">
        <ele>690.49</ele>
        <time>2021-02-24T13:11:12.322Z</time>
      </trkpt>
      <trkpt lat="47.01211" lon="7.30138">
        <ele>688.6</ele>
        <time>2021-02-24T13:11:17.212Z</time>
      </trkpt>
      <trkpt lat="47.01218" lon="7.3016">
        <ele>687.19</ele>
        <time>2021-02-24T13:11:20.768Z</time>
      </trkpt>
      <trkpt lat="47.01225" lon="7.30183">
        <ele>685.59</ele>
        <time>2021-02-24T13:11:24.457Z</time>
      </trkpt>
      <trkpt lat="47.01231" lon="7.30207">
        <ele>683.95</ele>
        <time>2021-02-24T13:11:28.201Z</time>
      </trkpt>
      <trkpt lat="47.01242" lon="7.30246">
        <ele>680.36</ele>
        <time>2021-02-24T13:11:34.382Z</time>
      </trkpt>
      <trkpt lat="47.01245" lon="7.30253">
        <ele>679.51</ele>
        <time>2021-02-24T13:11:35.593Z</time>
      </trkpt>
      <trkpt lat="47.01251" lon="7.30264">
        <ele>677.9</ele>
        <time>2021-02-24T13:11:37.656Z</time>
      </trkpt>
      <trkpt lat="47.0126" lon="7.30278">
        <ele>675.92</ele>
        <time>2021-02-24T13:11:40.474Z</time>
      </trkpt>
      <trkpt lat="47.01265" lon="7.30287">
        <ele>674.61</ele>
        <time>2021-02-24T13:11:42.174Z</time>
      </trkpt>
      <trkpt lat="47.01272" lon="7.30301">
        <ele>672.77</ele>
        <time>2021-02-24T13:11:44.717Z</time>
      </trkpt>
      <trkpt lat="47.01278" lon="7.30313">
        <ele>671.67</ele>
        <time>2021-02-24T13:11:46.896Z</time>
      </trkpt>
      <trkpt lat="47.01284" lon="7.30328">
        <ele>670.59</ele>
        <time>2021-02-24T13:11:49.443Z</time>
      </trkpt>
      <trkpt lat="47.01295" lon="7.30362">
        <ele>668.57</ele>
        <time>2021-02-24T13:11:54.955Z</time>
      </trkpt>
      <trkpt lat="47.01311" lon="7.30415">
        <ele>664.84</ele>
        <time>2021-02-24T13:12:03.444Z</time>
      </trkpt>
      <trkpt lat="47.0133" lon="7.30473">
        <ele>661.29</ele>
        <time>2021-02-24T13:12:12.868Z</time>
      </trkpt>
      <trkpt lat="47.01341" lon="7.30508">
        <ele>659.23</ele>
        <time>2021-02-24T13:12:18.512Z</time>
      </trkpt>
      <trkpt lat="47.01346" lon="7.30522">
        <ele>658.5</ele>
        <time>2021-02-24T13:12:20.827Z</time>
      </trkpt>
      <trkpt lat="47.01352" lon="7.30536">
        <ele>657.45</ele>
        <time>2021-02-24T13:12:23.249Z</time>
      </trkpt>
      <trkpt lat="47.0136" lon="7.30551">
        <ele>656.21</ele>
        <time>2021-02-24T13:12:26.038Z</time>
      </trkpt>
      <trkpt lat="47.014" lon="7.30626">
        <ele>647.05</ele>
        <time>2021-02-24T13:12:39.983Z</time>
      </trkpt>
      <trkpt lat="47.0141" lon="7.30643">
        <ele>644.33</ele>
        <time>2021-02-24T13:12:43.271Z</time>
      </trkpt>
      <trkpt lat="47.01419" lon="7.30657">
        <ele>642.8</ele>
        <time>2021-02-24T13:12:46.089Z</time>
      </trkpt>
      <trkpt lat="47.01424" lon="7.30665">
        <ele>642.12</ele>
        <time>2021-02-24T13:12:47.679Z</time>
      </trkpt>
      <trkpt lat="47.0143" lon="7.30661">
        <ele>642.2</ele>
        <time>2021-02-24T13:12:54.651Z</time>
      </trkpt>
      <trkpt lat="47.01438" lon="7.30656">
        <ele>641.84</ele>
        <time>2021-02-24T13:12:56.767Z</time>
      </trkpt>
      <trkpt lat="47.01449" lon="7.30646">
        <ele>641.76</ele>
        <time>2021-02-24T13:13:07.882Z</time>
      </trkpt>
      <trkpt lat="47.01466" lon="7.30631">
        <ele>641.38</ele>
        <time>2021-02-24T13:13:13.983Z</time>
      </trkpt>
      <trkpt lat="47.01485" lon="7.30613">
        <ele>640.98</ele>
        <time>2021-02-24T13:13:21.062Z</time>
      </trkpt>
      <trkpt lat="47.01531" lon="7.30572">
        <ele>641.96</ele>
        <time>2021-02-24T13:14:21.801Z</time>
      </trkpt>
      <trkpt lat="47.01542" lon="7.30562">
        <ele>642.75</ele>
        <time>2021-02-24T13:14:44.737Z</time>
      </trkpt>
      <trkpt lat="47.01545" lon="7.30569">
        <ele>642.83</ele>
        <time>2021-02-24T13:14:50.829Z</time>
      </trkpt>
      <trkpt lat="47.01545" lon="7.30572">
        <ele>642.84</ele>
        <time>2021-02-24T13:14:52.842Z</time>
      </trkpt>
      <trkpt lat="47.01546" lon="7.30578">
        <ele>642.96</ele>
        <time>2021-02-24T13:14:58.200Z</time>
      </trkpt>
      <trkpt lat="47.01546" lon="7.30585">
        <ele>643.22</ele>
        <time>2021-02-24T13:15:06.284Z</time>
      </trkpt>
      <trkpt lat="47.01546" lon="7.3059">
        <ele>643.22</ele>
        <time>2021-02-24T13:15:09.489Z</time>
      </trkpt>
      <trkpt lat="47.01547" lon="7.30597">
        <ele>643.36</ele>
        <time>2021-02-24T13:15:15.710Z</time>
      </trkpt>
      <trkpt lat="47.01558" lon="7.30632">
        <ele>642.53</ele>
        <time>2021-02-24T13:15:22.753Z</time>
      </trkpt>
      <trkpt lat="47.01561" lon="7.30644">
        <ele>642.02</ele>
        <time>2021-02-24T13:15:24.580Z</time>
      </trkpt>
      <trkpt lat="47.01563" lon="7.30652">
        <ele>641.43</ele>
        <time>2021-02-24T13:15:25.828Z</time>
      </trkpt>
      <trkpt lat="47.01572" lon="7.30672">
        <ele>640.58</ele>
        <time>2021-02-24T13:15:29.445Z</time>
      </trkpt>
      <trkpt lat="47.01583" lon="7.30698">
        <ele>640.48</ele>
        <time>2021-02-24T13:15:47.718Z</time>
      </trkpt>
      <trkpt lat="47.0159" lon="7.30713">
        <ele>640.39</ele>
        <time>2021-02-24T13:15:52.154Z</time>
      </trkpt>
      <trkpt lat="47.01596" lon="7.30731">
        <ele>639.65</ele>
        <time>2021-02-24T13:15:55.123Z</time>
      </trkpt>
      <trkpt lat="47.01602" lon="7.30744">
        <ele>638.74</ele>
        <time>2021-02-24T13:15:57.422Z</time>
      </trkpt>
      <trkpt lat="47.01615" lon="7.30768">
        <ele>636.49</ele>
        <time>2021-02-24T13:16:01.911Z</time>
      </trkpt>
      <trkpt lat="47.01628" lon="7.30791">
        <ele>633.34</ele>
        <time>2021-02-24T13:16:06.286Z</time>
      </trkpt>
      <trkpt lat="47.01636" lon="7.30808">
        <ele>631.47</ele>
        <time>2021-02-24T13:16:09.311Z</time>
      </trkpt>
      <trkpt lat="47.0164" lon="7.30815">
        <ele>630.31</ele>
        <time>2021-02-24T13:16:10.649Z</time>
      </trkpt>
      <trkpt lat="47.01644" lon="7.30821">
        <ele>629.06</ele>
        <time>2021-02-24T13:16:11.878Z</time>
      </trkpt>
      <trkpt lat="47.01649" lon="7.30826">
        <ele>627.53</ele>
        <time>2021-02-24T13:16:13.178Z</time>
      </trkpt>
      <trkpt lat="47.01657" lon="7.30831">
        <ele>625.18</ele>
        <time>2021-02-24T13:16:15.046Z</time>
      </trkpt>
      <trkpt lat="47.01667" lon="7.30836">
        <ele>623.06</ele>
        <time>2021-02-24T13:16:17.315Z</time>
      </trkpt>
      <trkpt lat="47.01672" lon="7.30838">
        <ele>622.17</ele>
        <time>2021-02-24T13:16:18.428Z</time>
      </trkpt>
      <trkpt lat="47.01676" lon="7.30838">
        <ele>622.2</ele>
        <time>2021-02-24T13:16:22.467Z</time>
      </trkpt>
      <trkpt lat="47.0168" lon="7.30851">
        <ele>620.9</ele>
        <time>2021-02-24T13:16:24.555Z</time>
      </trkpt>
      <trkpt lat="47.01689" lon="7.30875">
        <ele>619.17</ele>
        <time>2021-02-24T13:16:28.567Z</time>
      </trkpt>
      <trkpt lat="47.01692" lon="7.30881">
        <ele>618.95</ele>
        <time>2021-02-24T13:16:29.779Z</time>
      </trkpt>
      <trkpt lat="47.01696" lon="7.30886">
        <ele>618.49</ele>
        <time>2021-02-24T13:16:30.908Z</time>
      </trkpt>
      <trkpt lat="47.01701" lon="7.30889">
        <ele>617.87</ele>
        <time>2021-02-24T13:16:32.068Z</time>
      </trkpt>
      <trkpt lat="47.01706" lon="7.30892">
        <ele>617.16</ele>
        <time>2021-02-24T13:16:33.229Z</time>
      </trkpt>
      <trkpt lat="47.01714" lon="7.30896">
        <ele>616.12</ele>
        <time>2021-02-24T13:16:35.044Z</time>
      </trkpt>
      <trkpt lat="47.0172" lon="7.30899">
        <ele>615.58</ele>
        <time>2021-02-24T13:16:36.406Z</time>
      </trkpt>
      <trkpt lat="47.01725" lon="7.30902">
        <ele>614.75</ele>
        <time>2021-02-24T13:16:37.566Z</time>
      </trkpt>
      <trkpt lat="47.01728" lon="7.30905">
        <ele>614.51</ele>
        <time>2021-02-24T13:16:38.284Z</time>
      </trkpt>
      <trkpt lat="47.01733" lon="7.30911">
        <ele>614.09</ele>
        <time>2021-02-24T13:16:39.571Z</time>
      </trkpt>
      <trkpt lat="47.01737" lon="7.30917">
        <ele>613.74</ele>
        <time>2021-02-24T13:16:40.746Z</time>
      </trkpt>
      <trkpt lat="47.01743" lon="7.30929">
        <ele>613.7</ele>
        <time>2021-02-24T13:16:49.741Z</time>
      </trkpt>
      <trkpt lat="47.01749" lon="7.30941">
        <ele>613.47</ele>
        <time>2021-02-24T13:16:52.737Z</time>
      </trkpt>
      <trkpt lat="47.0176" lon="7.3097">
        <ele>613.36</ele>
        <time>2021-02-24T13:17:12.535Z</time>
      </trkpt>
      <trkpt lat="47.01768" lon="7.30991">
        <ele>613.1</ele>
        <time>2021-02-24T13:17:17.783Z</time>
      </trkpt>
      <trkpt lat="47.01771" lon="7.31001">
        <ele>613.05</ele>
        <time>2021-02-24T13:17:24.134Z</time>
      </trkpt>
      <trkpt lat="47.01773" lon="7.3101">
        <ele>613.13</ele>
        <time>2021-02-24T13:17:30.979Z</time>
      </trkpt>
      <trkpt lat="47.01774" lon="7.31014">
        <ele>612.71</ele>
        <time>2021-02-24T13:17:31.603Z</time>
      </trkpt>
      <trkpt lat="47.01774" lon="7.3102">
        <ele>612.71</ele>
        <time>2021-02-24T13:17:35.449Z</time>
      </trkpt>
      <trkpt lat="47.01772" lon="7.31036">
        <ele>611.92</ele>
        <time>2021-02-24T13:17:37.831Z</time>
      </trkpt>
      <trkpt lat="47.01766" lon="7.31087">
        <ele>608.59</ele>
        <time>2021-02-24T13:17:45.410Z</time>
      </trkpt>
      <trkpt lat="47.01766" lon="7.31096">
        <ele>607.77</ele>
        <time>2021-02-24T13:17:46.728Z</time>
      </trkpt>
      <trkpt lat="47.01766" lon="7.31102">
        <ele>607.59</ele>
        <time>2021-02-24T13:17:47.700Z</time>
      </trkpt>
      <trkpt lat="47.01768" lon="7.31109">
        <ele>607.12</ele>
        <time>2021-02-24T13:17:48.811Z</time>
      </trkpt>
      <trkpt lat="47.0177" lon="7.31115">
        <ele>606.9</ele>
        <time>2021-02-24T13:17:49.852Z</time>
      </trkpt>
      <trkpt lat="47.01772" lon="7.3112">
        <ele>606.35</ele>
        <time>2021-02-24T13:17:50.701Z</time>
      </trkpt>
      <trkpt lat="47.01776" lon="7.31124">
        <ele>606.02</ele>
        <time>2021-02-24T13:17:51.741Z</time>
      </trkpt>
      <trkpt lat="47.0178" lon="7.31127">
        <ele>605.63</ele>
        <time>2021-02-24T13:17:52.706Z</time>
      </trkpt>
      <trkpt lat="47.01784" lon="7.31129">
        <ele>605.37</ele>
        <time>2021-02-24T13:17:53.571Z</time>
      </trkpt>
      <trkpt lat="47.01788" lon="7.31129">
        <ele>605.04</ele>
        <time>2021-02-24T13:17:54.430Z</time>
      </trkpt>
      <trkpt lat="47.01793" lon="7.31129">
        <ele>604.32</ele>
        <time>2021-02-24T13:17:55.504Z</time>
      </trkpt>
      <trkpt lat="47.01799" lon="7.31127">
        <ele>603.56</ele>
        <time>2021-02-24T13:17:56.826Z</time>
      </trkpt>
      <trkpt lat="47.01806" lon="7.31122">
        <ele>602.36</ele>
        <time>2021-02-24T13:17:58.498Z</time>
      </trkpt>
      <trkpt lat="47.01812" lon="7.31116">
        <ele>601.52</ele>
        <time>2021-02-24T13:18:00.058Z</time>
      </trkpt>
      <trkpt lat="47.01818" lon="7.31108">
        <ele>600.36</ele>
        <time>2021-02-24T13:18:01.800Z</time>
      </trkpt>
      <trkpt lat="47.01824" lon="7.31095">
        <ele>599.13</ele>
        <time>2021-02-24T13:18:04.099Z</time>
      </trkpt>
      <trkpt lat="47.01828" lon="7.31084">
        <ele>598.05</ele>
        <time>2021-02-24T13:18:05.925Z</time>
      </trkpt>
      <trkpt lat="47.01831" lon="7.31071">
        <ele>596.78</ele>
        <time>2021-02-24T13:18:07.934Z</time>
      </trkpt>
      <trkpt lat="47.01833" lon="7.31059">
        <ele>595.71</ele>
        <time>2021-02-24T13:18:09.743Z</time>
      </trkpt>
      <trkpt lat="47.01833" lon="7.3105">
        <ele>594.73</ele>
        <time>2021-02-24T13:18:11.061Z</time>
      </trkpt>
      <trkpt lat="47.01833" lon="7.3104">
        <ele>593.71</ele>
        <time>2021-02-24T13:18:12.526Z</time>
      </trkpt>
      <trkpt lat="47.01832" lon="7.31027">
        <ele>592.52</ele>
        <time>2021-02-24T13:18:14.442Z</time>
      </trkpt>
      <trkpt lat="47.01832" lon="7.31016">
        <ele>591.62</ele>
        <time>2021-02-24T13:18:16.053Z</time>
      </trkpt>
      <trkpt lat="47.01841" lon="7.31026">
        <ele>590.52</ele>
        <time>2021-02-24T13:18:18.478Z</time>
      </trkpt>
      <trkpt lat="47.01851" lon="7.31035">
        <ele>587.87</ele>
        <time>2021-02-24T13:18:20.998Z</time>
      </trkpt>
      <trkpt lat="47.01863" lon="7.31045">
        <ele>585.59</ele>
        <time>2021-02-24T13:18:23.962Z</time>
      </trkpt>
      <trkpt lat="47.01867" lon="7.31051">
        <ele>584.23</ele>
        <time>2021-02-24T13:18:25.191Z</time>
      </trkpt>
      <trkpt lat="47.01872" lon="7.3106">
        <ele>582.81</ele>
        <time>2021-02-24T13:18:26.891Z</time>
      </trkpt>
      <trkpt lat="47.01878" lon="7.31075">
        <ele>580.1</ele>
        <time>2021-02-24T13:18:29.438Z</time>
      </trkpt>
      <trkpt lat="47.01884" lon="7.31096">
        <ele>577.13</ele>
        <time>2021-02-24T13:18:32.773Z</time>
      </trkpt>
      <trkpt lat="47.01886" lon="7.3111">
        <ele>575.44</ele>
        <time>2021-02-24T13:18:34.867Z</time>
      </trkpt>
      <trkpt lat="47.01887" lon="7.31121">
        <ele>574.42</ele>
        <time>2021-02-24T13:18:36.492Z</time>
      </trkpt>
      <trkpt lat="47.01887" lon="7.31129">
        <ele>572.64</ele>
        <time>2021-02-24T13:18:37.664Z</time>
      </trkpt>
      <trkpt lat="47.01886" lon="7.3114">
        <ele>571.41</ele>
        <time>2021-02-24T13:18:39.289Z</time>
      </trkpt>
      <trkpt lat="47.01887" lon="7.31146">
        <ele>570.48</ele>
        <time>2021-02-24T13:18:40.194Z</time>
      </trkpt>
      <trkpt lat="47.01887" lon="7.31151">
        <ele>569.65</ele>
        <time>2021-02-24T13:18:40.926Z</time>
      </trkpt>
      <trkpt lat="47.01888" lon="7.31155">
        <ele>568.76</ele>
        <time>2021-02-24T13:18:41.550Z</time>
      </trkpt>
      <trkpt lat="47.0189" lon="7.31159">
        <ele>568.84</ele>
        <time>2021-02-24T13:18:45.609Z</time>
      </trkpt>
      <trkpt lat="47.01888" lon="7.31167">
        <ele>568.46</ele>
        <time>2021-02-24T13:18:46.763Z</time>
      </trkpt>
      <trkpt lat="47.01887" lon="7.31175">
        <ele>568.23</ele>
        <time>2021-02-24T13:18:48.112Z</time>
      </trkpt>
      <trkpt lat="47.01886" lon="7.31182">
        <ele>568.3</ele>
        <time>2021-02-24T13:18:53.390Z</time>
      </trkpt>
      <trkpt lat="47.01887" lon="7.31187">
        <ele>568.26</ele>
        <time>2021-02-24T13:18:54.595Z</time>
      </trkpt>
      <trkpt lat="47.01888" lon="7.3119">
        <ele>568.34</ele>
        <time>2021-02-24T13:18:57.752Z</time>
      </trkpt>
      <trkpt lat="47.0189" lon="7.31193">
        <ele>568.45</ele>
        <time>2021-02-24T13:19:01.904Z</time>
      </trkpt>
      <trkpt lat="47.01893" lon="7.31195">
        <ele>568.32</ele>
        <time>2021-02-24T13:19:02.721Z</time>
      </trkpt>
      <trkpt lat="47.01896" lon="7.31196">
        <ele>568.2</ele>
        <time>2021-02-24T13:19:03.487Z</time>
      </trkpt>
      <trkpt lat="47.01899" lon="7.31197">
        <ele>568.2</ele>
        <time>2021-02-24T13:19:06.379Z</time>
      </trkpt>
      <trkpt lat="47.01903" lon="7.31197">
        <ele>567.96</ele>
        <time>2021-02-24T13:19:07.208Z</time>
      </trkpt>
      <trkpt lat="47.01908" lon="7.31194">
        <ele>567.67</ele>
        <time>2021-02-24T13:19:08.387Z</time>
      </trkpt>
      <trkpt lat="47.01913" lon="7.3119">
        <ele>567.59</ele>
        <time>2021-02-24T13:19:10.252Z</time>
      </trkpt>
      <trkpt lat="47.01918" lon="7.31183">
        <ele>567.41</ele>
        <time>2021-02-24T13:19:12.217Z</time>
      </trkpt>
      <trkpt lat="47.01924" lon="7.31171">
        <ele>567.15</ele>
        <time>2021-02-24T13:19:15.115Z</time>
      </trkpt>
      <trkpt lat="47.01931" lon="7.31179">
        <ele>567.96</ele>
        <time>2021-02-24T13:19:35.112Z</time>
      </trkpt>
      <trkpt lat="47.01937" lon="7.31184">
        <ele>571.3</ele>
        <time>2021-02-24T13:20:00.138Z</time>
      </trkpt>
      <trkpt lat="47.01949" lon="7.31192">
        <ele>576.94</ele>
        <time>2021-02-24T13:20:47.940Z</time>
      </trkpt>
      <trkpt lat="47.01959" lon="7.31199">
        <ele>579.74</ele>
        <time>2021-02-24T13:21:28.124Z</time>
      </trkpt>
      <trkpt lat="47.01966" lon="7.31202">
        <ele>581.46</ele>
        <time>2021-02-24T13:21:54.571Z</time>
      </trkpt>
      <trkpt lat="47.01967" lon="7.31211">
        <ele>582.08</ele>
        <time>2021-02-24T13:22:09.731Z</time>
      </trkpt>
      <trkpt lat="47.01971" lon="7.31229">
        <ele>583.33</ele>
        <time>2021-02-24T13:22:40.348Z</time>
      </trkpt>
      <trkpt lat="47.01981" lon="7.31275">
        <ele>586.52</ele>
        <time>2021-02-24T13:23:58.479Z</time>
      </trkpt>
      <trkpt lat="47.01989" lon="7.31312">
        <ele>589.16</ele>
        <time>2021-02-24T13:25:03.032Z</time>
      </trkpt>
      <trkpt lat="47.01991" lon="7.31327">
        <ele>590.16</ele>
        <time>2021-02-24T13:25:27.546Z</time>
      </trkpt>
      <trkpt lat="47.01994" lon="7.31353">
        <ele>592.11</ele>
        <time>2021-02-24T13:26:15.456Z</time>
      </trkpt>
      <trkpt lat="47.01996" lon="7.31371">
        <ele>593.59</ele>
        <time>2021-02-24T13:26:52.778Z</time>
      </trkpt>
      <trkpt lat="47.02002" lon="7.31352">
        <ele>594.76</ele>
        <time>2021-02-24T13:27:22.463Z</time>
      </trkpt>
      <trkpt lat="47.02007" lon="7.31338">
        <ele>596.23</ele>
        <time>2021-02-24T13:28:01.538Z</time>
      </trkpt>
      <trkpt lat="47.02008" lon="7.31356">
        <ele>597.33</ele>
        <time>2021-02-24T13:28:28.810Z</time>
      </trkpt>
      <trkpt lat="47.0201" lon="7.31411">
        <ele>603.77</ele>
        <time>2021-02-24T13:30:44.983Z</time>
      </trkpt>
      <trkpt lat="47.02013" lon="7.31437">
        <ele>606.96</ele>
        <time>2021-02-24T13:31:50.179Z</time>
      </trkpt>
      <trkpt lat="47.02017" lon="7.31453">
        <ele>609.14</ele>
        <time>2021-02-24T13:32:32.313Z</time>
      </trkpt>
      <trkpt lat="47.02022" lon="7.31465">
        <ele>610.88</ele>
        <time>2021-02-24T13:33:07.084Z</time>
      </trkpt>
      <trkpt lat="47.02028" lon="7.31477">
        <ele>613.02</ele>
        <time>2021-02-24T13:33:43.876Z</time>
      </trkpt>
      <trkpt lat="47.02039" lon="7.31496">
        <ele>617.65</ele>
        <time>2021-02-24T13:34:45.504Z</time>
      </trkpt>
      <trkpt lat="47.02049" lon="7.31515">
        <ele>622</ele>
        <time>2021-02-24T13:35:44.849Z</time>
      </trkpt>
      <trkpt lat="47.0206" lon="7.31543">
        <ele>625.18</ele>
        <time>2021-02-24T13:37:04.746Z</time>
      </trkpt>
      <trkpt lat="47.02076" lon="7.3158">
        <ele>629.59</ele>
        <time>2021-02-24T13:38:53.073Z</time>
      </trkpt>
      <trkpt lat="47.02082" lon="7.31591">
        <ele>631.2</ele>
        <time>2021-02-24T13:39:27.903Z</time>
      </trkpt>
      <trkpt lat="47.02083" lon="7.31599">
        <ele>631.1</ele>
        <time>2021-02-24T13:39:29.631Z</time>
      </trkpt>
      <trkpt lat="47.02085" lon="7.31608">
        <ele>631.46</ele>
        <time>2021-02-24T13:39:40.658Z</time>
      </trkpt>
      <trkpt lat="47.02089" lon="7.31617">
        <ele>631.82</ele>
        <time>2021-02-24T13:39:52.633Z</time>
      </trkpt>
      <trkpt lat="47.02092" lon="7.31619">
        <ele>632.11</ele>
        <time>2021-02-24T13:39:59.847Z</time>
      </trkpt>
      <trkpt lat="47.02096" lon="7.3162">
        <ele>632.42</ele>
        <time>2021-02-24T13:40:07.913Z</time>
      </trkpt>
      <trkpt lat="47.02113" lon="7.31624">
        <ele>634.53</ele>
        <time>2021-02-24T13:41:01.866Z</time>
      </trkpt>
      <trkpt lat="47.02148" lon="7.3163">
        <ele>636.04</ele>
        <time>2021-02-24T13:41:56.404Z</time>
      </trkpt>
      <trkpt lat="47.02179" lon="7.31633">
        <ele>635.42</ele>
        <time>2021-02-24T13:42:05.868Z</time>
      </trkpt>
      <trkpt lat="47.02239" lon="7.31639">
        <ele>632.6</ele>
        <time>2021-02-24T13:42:19.788Z</time>
      </trkpt>
      <trkpt lat="47.02242" lon="7.31647">
        <ele>632.33</ele>
        <time>2021-02-24T13:42:21.276Z</time>
      </trkpt>
      <trkpt lat="47.02245" lon="7.31653">
        <ele>632.16</ele>
        <time>2021-02-24T13:42:22.609Z</time>
      </trkpt>
      <trkpt lat="47.02246" lon="7.31656">
        <ele>632.08</ele>
        <time>2021-02-24T13:42:23.197Z</time>
      </trkpt>
      <trkpt lat="47.02253" lon="7.31668">
        <ele>631.8</ele>
        <time>2021-02-24T13:42:26.260Z</time>
      </trkpt>
      <trkpt lat="47.02253" lon="7.31667">
        <ele>631.8</ele>
        <time>2021-02-24T13:42:26.901Z</time>
      </trkpt>
      <trkpt lat="47.02263" lon="7.31685">
        <ele>631.53</ele>
        <time>2021-02-24T13:42:31.893Z</time>
      </trkpt>
      <trkpt lat="47.02268" lon="7.31692">
        <ele>631.29</ele>
        <time>2021-02-24T13:42:33.687Z</time>
      </trkpt>
      <trkpt lat="47.0227" lon="7.31698">
        <ele>631.01</ele>
        <time>2021-02-24T13:42:34.620Z</time>
      </trkpt>
      <trkpt lat="47.02272" lon="7.31705">
        <ele>630.72</ele>
        <time>2021-02-24T13:42:35.727Z</time>
      </trkpt>
      <trkpt lat="47.02276" lon="7.31715">
        <ele>630.47</ele>
        <time>2021-02-24T13:42:37.845Z</time>
      </trkpt>
      <trkpt lat="47.02273" lon="7.3172">
        <ele>630.75</ele>
        <time>2021-02-24T13:42:45.927Z</time>
      </trkpt>
      <trkpt lat="47.02271" lon="7.31726">
        <ele>631.01</ele>
        <time>2021-02-24T13:42:53.778Z</time>
      </trkpt>
      <trkpt lat="47.0227" lon="7.31732">
        <ele>631.01</ele>
        <time>2021-02-24T13:42:57.737Z</time>
      </trkpt>
      <trkpt lat="47.02268" lon="7.31742">
        <ele>631.42</ele>
        <time>2021-02-24T13:43:10.038Z</time>
      </trkpt>
      <trkpt lat="47.02267" lon="7.31756">
        <ele>631.82</ele>
        <time>2021-02-24T13:43:24.633Z</time>
      </trkpt>
      <trkpt lat="47.02266" lon="7.31766">
        <ele>632.01</ele>
        <time>2021-02-24T13:43:33.301Z</time>
      </trkpt>
      <trkpt lat="47.02264" lon="7.31774">
        <ele>632.1</ele>
        <time>2021-02-24T13:43:39.666Z</time>
      </trkpt>
      <trkpt lat="47.02262" lon="7.31785">
        <ele>632.32</ele>
        <time>2021-02-24T13:43:49.522Z</time>
      </trkpt>
      <trkpt lat="47.02258" lon="7.31795">
        <ele>632.63</ele>
        <time>2021-02-24T13:44:01.120Z</time>
      </trkpt>
      <trkpt lat="47.02254" lon="7.31804">
        <ele>633</ele>
        <time>2021-02-24T13:44:13.202Z</time>
      </trkpt>
      <trkpt lat="47.02249" lon="7.31812">
        <ele>633.08</ele>
        <time>2021-02-24T13:44:20.923Z</time>
      </trkpt>
      <trkpt lat="47.02243" lon="7.31819">
        <ele>633.3</ele>
        <time>2021-02-24T13:44:30.701Z</time>
      </trkpt>
      <trkpt lat="47.02223" lon="7.31842">
        <ele>634.21</ele>
        <time>2021-02-24T13:45:06.258Z</time>
      </trkpt>
      <trkpt lat="47.0221" lon="7.31858">
        <ele>634.96</ele>
        <time>2021-02-24T13:45:33.065Z</time>
      </trkpt>
      <trkpt lat="47.022" lon="7.3187">
        <ele>635.48</ele>
        <time>2021-02-24T13:45:52.306Z</time>
      </trkpt>
      <trkpt lat="47.02193" lon="7.31881">
        <ele>635.9</ele>
        <time>2021-02-24T13:46:07.739Z</time>
      </trkpt>
      <trkpt lat="47.02189" lon="7.31891">
        <ele>636.04</ele>
        <time>2021-02-24T13:46:16.609Z</time>
      </trkpt>
      <trkpt lat="47.02182" lon="7.31907">
        <ele>636.72</ele>
        <time>2021-02-24T13:46:38.267Z</time>
      </trkpt>
      <trkpt lat="47.02162" lon="7.3196">
        <ele>638.59</ele>
        <time>2021-02-24T13:47:44.124Z</time>
      </trkpt>
      <trkpt lat="47.02158" lon="7.31968">
        <ele>638.82</ele>
        <time>2021-02-24T13:47:53.360Z</time>
      </trkpt>
      <trkpt lat="47.02144" lon="7.31991">
        <ele>639.94</ele>
        <time>2021-02-24T13:48:28.677Z</time>
      </trkpt>
      <trkpt lat="47.02139" lon="7.32">
        <ele>640.3</ele>
        <time>2021-02-24T13:48:41.316Z</time>
      </trkpt>
      <trkpt lat="47.02134" lon="7.32006">
        <ele>640.61</ele>
        <time>2021-02-24T13:48:51.798Z</time>
      </trkpt>
      <trkpt lat="47.02129" lon="7.32011">
        <ele>640.76</ele>
        <time>2021-02-24T13:48:59.159Z</time>
      </trkpt>
      <trkpt lat="47.02122" lon="7.32018">
        <ele>640.91</ele>
        <time>2021-02-24T13:49:08.666Z</time>
      </trkpt>
      <trkpt lat="47.02117" lon="7.32024">
        <ele>641.23</ele>
        <time>2021-02-24T13:49:19.254Z</time>
      </trkpt>
      <trkpt lat="47.02113" lon="7.3203">
        <ele>641.51</ele>
        <time>2021-02-24T13:49:28.595Z</time>
      </trkpt>
      <trkpt lat="47.02111" lon="7.32035">
        <ele>641.62</ele>
        <time>2021-02-24T13:49:33.582Z</time>
      </trkpt>
      <trkpt lat="47.0211" lon="7.3204">
        <ele>641.53</ele>
        <time>2021-02-24T13:49:34.600Z</time>
      </trkpt>
      <trkpt lat="47.0211" lon="7.32054">
        <ele>641.93</ele>
        <time>2021-02-24T13:49:49.165Z</time>
      </trkpt>
      <trkpt lat="47.02111" lon="7.32064">
        <ele>642.28</ele>
        <time>2021-02-24T13:50:00.552Z</time>
      </trkpt>
      <trkpt lat="47.02112" lon="7.32082">
        <ele>642.98</ele>
        <time>2021-02-24T13:50:21.745Z</time>
      </trkpt>
      <trkpt lat="47.02114" lon="7.32094">
        <ele>643.38</ele>
        <time>2021-02-24T13:50:35.367Z</time>
      </trkpt>
      <trkpt lat="47.02115" lon="7.32102">
        <ele>643.67</ele>
        <time>2021-02-24T13:50:44.622Z</time>
      </trkpt>
      <trkpt lat="47.02117" lon="7.32113">
        <ele>644.13</ele>
        <time>2021-02-24T13:50:58.207Z</time>
      </trkpt>
      <trkpt lat="47.0212" lon="7.32128">
        <ele>644.83</ele>
        <time>2021-02-24T13:51:17.734Z</time>
      </trkpt>
      <trkpt lat="47.02125" lon="7.32141">
        <ele>645.27</ele>
        <time>2021-02-24T13:51:33.575Z</time>
      </trkpt>
      <trkpt lat="47.0213" lon="7.32153">
        <ele>645.96</ele>
        <time>2021-02-24T13:51:51.988Z</time>
      </trkpt>
      <trkpt lat="47.02135" lon="7.32162">
        <ele>646.64</ele>
        <time>2021-02-24T13:52:09.004Z</time>
      </trkpt>
      <trkpt lat="47.02218" lon="7.32259">
        <ele>654.79</ele>
        <time>2021-02-24T13:55:40.629Z</time>
      </trkpt>
      <trkpt lat="47.02233" lon="7.32276">
        <ele>656.56</ele>
        <time>2021-02-24T13:56:24.166Z</time>
      </trkpt>
      <trkpt lat="47.0224" lon="7.32284">
        <ele>657.28</ele>
        <time>2021-02-24T13:56:42.494Z</time>
      </trkpt>
      <trkpt lat="47.02249" lon="7.3229">
        <ele>658.07</ele>
        <time>2021-02-24T13:57:02.708Z</time>
      </trkpt>
      <trkpt lat="47.02308" lon="7.3233">
        <ele>662.91</ele>
        <time>2021-02-24T13:59:09.963Z</time>
      </trkpt>
      <trkpt lat="47.02339" lon="7.3235">
        <ele>664.5</ele>
        <time>2021-02-24T14:00:04.548Z</time>
      </trkpt>
      <trkpt lat="47.02345" lon="7.32355">
        <ele>664.63</ele>
        <time>2021-02-24T14:00:12.389Z</time>
      </trkpt>
      <trkpt lat="47.02355" lon="7.32363">
        <ele>665.18</ele>
        <time>2021-02-24T14:00:30.907Z</time>
      </trkpt>
      <trkpt lat="47.02364" lon="7.32371">
        <ele>665.55</ele>
        <time>2021-02-24T14:00:45.502Z</time>
      </trkpt>
      <trkpt lat="47.02375" lon="7.32385">
        <ele>666.33</ele>
        <time>2021-02-24T14:01:10.015Z</time>
      </trkpt>
      <trkpt lat="47.02388" lon="7.32404">
        <ele>667.36</ele>
        <time>2021-02-24T14:01:41.447Z</time>
      </trkpt>
      <trkpt lat="47.02401" lon="7.32425">
        <ele>668.57</ele>
        <time>2021-02-24T14:02:16.092Z</time>
      </trkpt>
      <trkpt lat="47.02418" lon="7.32457">
        <ele>670.43</ele>
        <time>2021-02-24T14:03:07.354Z</time>
      </trkpt>
      <trkpt lat="47.02428" lon="7.32477">
        <ele>671.25</ele>
        <time>2021-02-24T14:03:34.881Z</time>
      </trkpt>
      <trkpt lat="47.02429" lon="7.3248">
        <ele>671.48</ele>
        <time>2021-02-24T14:03:40.503Z</time>
      </trkpt>
      <trkpt lat="47.02435" lon="7.32493">
        <ele>671.82</ele>
        <time>2021-02-24T14:03:54.695Z</time>
      </trkpt>
      <trkpt lat="47.02445" lon="7.32516">
        <ele>672.5</ele>
        <time>2021-02-24T14:04:20.986Z</time>
      </trkpt>
      <trkpt lat="47.02451" lon="7.32533">
        <ele>672.84</ele>
        <time>2021-02-24T14:04:37.101Z</time>
      </trkpt>
      <trkpt lat="47.02457" lon="7.3255">
        <ele>673.3</ele>
        <time>2021-02-24T14:04:55.221Z</time>
      </trkpt>
      <trkpt lat="47.02468" lon="7.32591">
        <ele>674.09</ele>
        <time>2021-02-24T14:05:32.424Z</time>
      </trkpt>
      <trkpt lat="47.02474" lon="7.32609">
        <ele>674.47</ele>
        <time>2021-02-24T14:05:49.658Z</time>
      </trkpt>
      <trkpt lat="47.02479" lon="7.32624">
        <ele>674.28</ele>
        <time>2021-02-24T14:05:53.264Z</time>
      </trkpt>
      <trkpt lat="47.02486" lon="7.32643">
        <ele>673.98</ele>
        <time>2021-02-24T14:05:57.727Z</time>
      </trkpt>
      <trkpt lat="47.0251" lon="7.32703">
        <ele>672.57</ele>
        <time>2021-02-24T14:06:10.686Z</time>
      </trkpt>
      <trkpt lat="47.02524" lon="7.32736">
        <ele>671.57</ele>
        <time>2021-02-24T14:06:17.364Z</time>
      </trkpt>
      <trkpt lat="47.02546" lon="7.32791">
        <ele>669.95</ele>
        <time>2021-02-24T14:06:28.371Z</time>
      </trkpt>
      <trkpt lat="47.02565" lon="7.32836">
        <ele>668.79</ele>
        <time>2021-02-24T14:06:37.987Z</time>
      </trkpt>
      <trkpt lat="47.02582" lon="7.32876">
        <ele>668.07</ele>
        <time>2021-02-24T14:06:47.502Z</time>
      </trkpt>
      <trkpt lat="47.02591" lon="7.32896">
        <ele>667.95</ele>
        <time>2021-02-24T14:06:53.342Z</time>
      </trkpt>
      <trkpt lat="47.02604" lon="7.32928">
        <ele>667.18</ele>
        <time>2021-02-24T14:07:00.239Z</time>
      </trkpt>
      <trkpt lat="47.02615" lon="7.32952">
        <ele>666.72</ele>
        <time>2021-02-24T14:07:06.016Z</time>
      </trkpt>
      <trkpt lat="47.02633" lon="7.32996">
        <ele>665.62</ele>
        <time>2021-02-24T14:07:15.406Z</time>
      </trkpt>
      <trkpt lat="47.02662" lon="7.33064">
        <ele>663.19</ele>
        <time>2021-02-24T14:07:28.344Z</time>
      </trkpt>
    </trkseg>
  </trk>
</gpx>